<?xml version="1.0" encoding="UTF-8" standalone="no" ?>
<gpx xmlns="http://www.topografix.com/GPX/1/1" xmlns:xsi="http://www.w3.org/2001/XMLSchema-instance" xsi:schemaLocation="http://www.topografix.com/GPX/1/1 http://www.topografix.com/GPX/1/1/gpx.xsd" version="1.1" creator="VisuGPX - https://www.visugpx.com">
  <metadata>
    <name>Gigondas - Dentelles Sarrasines et Montmirail (version plus facile)</name>
    <desc><![CDATA[Version plus facile (dénivelé moindre) de la rando Dentelles Sarrasines et Montmirail]]></desc>
  </metadata>
  <trk>
    <name><![CDATA[Dentelles Montmirail_18 mai 2016]]></name>
    <trkseg>
      <trkpt lat="44.16349" lon="5.00266">
        <ele>276</ele>
        <time>2016-05-18T07:26:28Z</time>
      </trkpt>
      <trkpt lat="44.16342" lon="5.00296">
        <ele>353</ele>
        <time>2016-05-18T07:26:32Z</time>
      </trkpt>
      <trkpt lat="44.16349" lon="5.00288">
        <ele>313</ele>
        <time>2016-05-18T07:28:01Z</time>
      </trkpt>
      <trkpt lat="44.1635" lon="5.00279">
        <ele>290</ele>
        <time>2016-05-18T07:28:22Z</time>
      </trkpt>
      <trkpt lat="44.16342" lon="5.00277">
        <ele>279</ele>
        <time>2016-05-18T07:29:02Z</time>
      </trkpt>
      <trkpt lat="44.16334" lon="5.00281">
        <ele>277</ele>
        <time>2016-05-18T07:29:14Z</time>
      </trkpt>
      <trkpt lat="44.16327" lon="5.00287">
        <ele>282</ele>
        <time>2016-05-18T07:29:29Z</time>
      </trkpt>
      <trkpt lat="44.16321" lon="5.00295">
        <ele>282</ele>
        <time>2016-05-18T07:29:36Z</time>
      </trkpt>
      <trkpt lat="44.16317" lon="5.00303">
        <ele>282</ele>
        <time>2016-05-18T07:29:45Z</time>
      </trkpt>
      <trkpt lat="44.16312" lon="5.00314">
        <ele>283</ele>
        <time>2016-05-18T07:29:54Z</time>
      </trkpt>
      <trkpt lat="44.16307" lon="5.00324">
        <ele>285</ele>
        <time>2016-05-18T07:30:02Z</time>
      </trkpt>
      <trkpt lat="44.16304" lon="5.00334">
        <ele>288</ele>
        <time>2016-05-18T07:30:09Z</time>
      </trkpt>
      <trkpt lat="44.163" lon="5.00345">
        <ele>289</ele>
        <time>2016-05-18T07:30:17Z</time>
      </trkpt>
      <trkpt lat="44.16298" lon="5.00357">
        <ele>286</ele>
        <time>2016-05-18T07:30:23Z</time>
      </trkpt>
      <trkpt lat="44.16299" lon="5.00369">
        <ele>289</ele>
        <time>2016-05-18T07:30:31Z</time>
      </trkpt>
      <trkpt lat="44.16302" lon="5.0038">
        <ele>288</ele>
        <time>2016-05-18T07:30:39Z</time>
      </trkpt>
      <trkpt lat="44.16307" lon="5.0039">
        <ele>289</ele>
        <time>2016-05-18T07:30:46Z</time>
      </trkpt>
      <trkpt lat="44.16312" lon="5.004">
        <ele>291</ele>
        <time>2016-05-18T07:30:53Z</time>
      </trkpt>
      <trkpt lat="44.16316" lon="5.0041">
        <ele>294</ele>
        <time>2016-05-18T07:31:02Z</time>
      </trkpt>
      <trkpt lat="44.1631" lon="5.00418">
        <ele>291</ele>
        <time>2016-05-18T07:31:10Z</time>
      </trkpt>
      <trkpt lat="44.16303" lon="5.00422">
        <ele>293</ele>
        <time>2016-05-18T07:31:17Z</time>
      </trkpt>
      <trkpt lat="44.16296" lon="5.00425">
        <ele>305</ele>
        <time>2016-05-18T07:31:22Z</time>
      </trkpt>
      <trkpt lat="44.16287" lon="5.00427">
        <ele>295</ele>
        <time>2016-05-18T07:31:30Z</time>
      </trkpt>
      <trkpt lat="44.16281" lon="5.00435">
        <ele>299</ele>
        <time>2016-05-18T07:31:41Z</time>
      </trkpt>
      <trkpt lat="44.16273" lon="5.00438">
        <ele>296</ele>
        <time>2016-05-18T07:31:47Z</time>
      </trkpt>
      <trkpt lat="44.16267" lon="5.00444">
        <ele>293</ele>
        <time>2016-05-18T07:31:53Z</time>
      </trkpt>
      <trkpt lat="44.1626" lon="5.00452">
        <ele>296</ele>
        <time>2016-05-18T07:32:01Z</time>
      </trkpt>
      <trkpt lat="44.16254" lon="5.0046">
        <ele>299</ele>
        <time>2016-05-18T07:32:09Z</time>
      </trkpt>
      <trkpt lat="44.16247" lon="5.00466">
        <ele>302</ele>
        <time>2016-05-18T07:32:16Z</time>
      </trkpt>
      <trkpt lat="44.1624" lon="5.00472">
        <ele>303</ele>
        <time>2016-05-18T07:32:25Z</time>
      </trkpt>
      <trkpt lat="44.16232" lon="5.00475">
        <ele>301</ele>
        <time>2016-05-18T07:32:32Z</time>
      </trkpt>
      <trkpt lat="44.16225" lon="5.00479">
        <ele>302</ele>
        <time>2016-05-18T07:32:40Z</time>
      </trkpt>
      <trkpt lat="44.16217" lon="5.0048">
        <ele>304</ele>
        <time>2016-05-18T07:32:47Z</time>
      </trkpt>
      <trkpt lat="44.16209" lon="5.00477">
        <ele>307</ele>
        <time>2016-05-18T07:32:56Z</time>
      </trkpt>
      <trkpt lat="44.16201" lon="5.00474">
        <ele>311</ele>
        <time>2016-05-18T07:33:08Z</time>
      </trkpt>
      <trkpt lat="44.16194" lon="5.00468">
        <ele>311</ele>
        <time>2016-05-18T07:33:12Z</time>
      </trkpt>
      <trkpt lat="44.16189" lon="5.00459">
        <ele>313</ele>
        <time>2016-05-18T07:33:19Z</time>
      </trkpt>
      <trkpt lat="44.16182" lon="5.00453">
        <ele>308</ele>
        <time>2016-05-18T07:33:28Z</time>
      </trkpt>
      <trkpt lat="44.16176" lon="5.00444">
        <ele>310</ele>
        <time>2016-05-18T07:33:37Z</time>
      </trkpt>
      <trkpt lat="44.1617" lon="5.00435">
        <ele>313</ele>
        <time>2016-05-18T07:33:46Z</time>
      </trkpt>
      <trkpt lat="44.16164" lon="5.00427">
        <ele>311</ele>
        <time>2016-05-18T07:33:57Z</time>
      </trkpt>
      <trkpt lat="44.16156" lon="5.00422">
        <ele>304</ele>
        <time>2016-05-18T07:34:08Z</time>
      </trkpt>
      <trkpt lat="44.16147" lon="5.0042">
        <ele>302</ele>
        <time>2016-05-18T07:34:17Z</time>
      </trkpt>
      <trkpt lat="44.1614" lon="5.00413">
        <ele>300</ele>
        <time>2016-05-18T07:34:28Z</time>
      </trkpt>
      <trkpt lat="44.16132" lon="5.00408">
        <ele>300</ele>
        <time>2016-05-18T07:34:41Z</time>
      </trkpt>
      <trkpt lat="44.16125" lon="5.00401">
        <ele>302</ele>
        <time>2016-05-18T07:34:50Z</time>
      </trkpt>
      <trkpt lat="44.16117" lon="5.00402">
        <ele>304</ele>
        <time>2016-05-18T07:34:57Z</time>
      </trkpt>
      <trkpt lat="44.16109" lon="5.00397">
        <ele>310</ele>
        <time>2016-05-18T07:35:12Z</time>
      </trkpt>
      <trkpt lat="44.16103" lon="5.00389">
        <ele>317</ele>
        <time>2016-05-18T07:35:25Z</time>
      </trkpt>
      <trkpt lat="44.16097" lon="5.0038">
        <ele>323</ele>
        <time>2016-05-18T07:35:42Z</time>
      </trkpt>
      <trkpt lat="44.1609" lon="5.00372">
        <ele>325</ele>
        <time>2016-05-18T07:35:47Z</time>
      </trkpt>
      <trkpt lat="44.16084" lon="5.00364">
        <ele>328</ele>
        <time>2016-05-18T07:35:53Z</time>
      </trkpt>
      <trkpt lat="44.16079" lon="5.00355">
        <ele>333</ele>
        <time>2016-05-18T07:36:00Z</time>
      </trkpt>
      <trkpt lat="44.16074" lon="5.00346">
        <ele>335</ele>
        <time>2016-05-18T07:36:11Z</time>
      </trkpt>
      <trkpt lat="44.1607" lon="5.00337">
        <ele>337</ele>
        <time>2016-05-18T07:36:20Z</time>
      </trkpt>
      <trkpt lat="44.16065" lon="5.00327">
        <ele>337</ele>
        <time>2016-05-18T07:36:30Z</time>
      </trkpt>
      <trkpt lat="44.16057" lon="5.00323">
        <ele>332</ele>
        <time>2016-05-18T07:36:40Z</time>
      </trkpt>
      <trkpt lat="44.16049" lon="5.00319">
        <ele>329</ele>
        <time>2016-05-18T07:36:51Z</time>
      </trkpt>
      <trkpt lat="44.16041" lon="5.00314">
        <ele>326</ele>
        <time>2016-05-18T07:37:01Z</time>
      </trkpt>
      <trkpt lat="44.16033" lon="5.00312">
        <ele>328</ele>
        <time>2016-05-18T07:37:13Z</time>
      </trkpt>
      <trkpt lat="44.16026" lon="5.00319">
        <ele>331</ele>
        <time>2016-05-18T07:37:20Z</time>
      </trkpt>
      <trkpt lat="44.16023" lon="5.00327">
        <ele>330</ele>
        <time>2016-05-18T07:37:29Z</time>
      </trkpt>
      <trkpt lat="44.16018" lon="5.00337">
        <ele>333</ele>
        <time>2016-05-18T07:37:45Z</time>
      </trkpt>
      <trkpt lat="44.16013" lon="5.00344">
        <ele>332</ele>
        <time>2016-05-18T07:37:53Z</time>
      </trkpt>
      <trkpt lat="44.16005" lon="5.00349">
        <ele>332</ele>
        <time>2016-05-18T07:38:06Z</time>
      </trkpt>
      <trkpt lat="44.15997" lon="5.00351">
        <ele>335</ele>
        <time>2016-05-18T07:38:21Z</time>
      </trkpt>
      <trkpt lat="44.15991" lon="5.00357">
        <ele>336</ele>
        <time>2016-05-18T07:38:29Z</time>
      </trkpt>
      <trkpt lat="44.15985" lon="5.00366">
        <ele>336</ele>
        <time>2016-05-18T07:38:36Z</time>
      </trkpt>
      <trkpt lat="44.15979" lon="5.00375">
        <ele>336</ele>
        <time>2016-05-18T07:38:47Z</time>
      </trkpt>
      <trkpt lat="44.15975" lon="5.00386">
        <ele>339</ele>
        <time>2016-05-18T07:38:58Z</time>
      </trkpt>
      <trkpt lat="44.15972" lon="5.00396">
        <ele>341</ele>
        <time>2016-05-18T07:39:06Z</time>
      </trkpt>
      <trkpt lat="44.15967" lon="5.00407">
        <ele>341</ele>
        <time>2016-05-18T07:39:23Z</time>
      </trkpt>
      <trkpt lat="44.15962" lon="5.00416">
        <ele>346</ele>
        <time>2016-05-18T07:39:35Z</time>
      </trkpt>
      <trkpt lat="44.15957" lon="5.00425">
        <ele>349</ele>
        <time>2016-05-18T07:39:44Z</time>
      </trkpt>
      <trkpt lat="44.15954" lon="5.00437">
        <ele>351</ele>
        <time>2016-05-18T07:40:01Z</time>
      </trkpt>
      <trkpt lat="44.15949" lon="5.00447">
        <ele>351</ele>
        <time>2016-05-18T07:40:09Z</time>
      </trkpt>
      <trkpt lat="44.15942" lon="5.00455">
        <ele>352</ele>
        <time>2016-05-18T07:40:19Z</time>
      </trkpt>
      <trkpt lat="44.15939" lon="5.00467">
        <ele>354</ele>
        <time>2016-05-18T07:40:36Z</time>
      </trkpt>
      <trkpt lat="44.15938" lon="5.00479">
        <ele>360</ele>
        <time>2016-05-18T07:43:39Z</time>
      </trkpt>
      <trkpt lat="44.15939" lon="5.0049">
        <ele>361</ele>
        <time>2016-05-18T07:43:49Z</time>
      </trkpt>
      <trkpt lat="44.15943" lon="5.005">
        <ele>363</ele>
        <time>2016-05-18T07:44:01Z</time>
      </trkpt>
      <trkpt lat="44.15944" lon="5.00512">
        <ele>368</ele>
        <time>2016-05-18T07:44:16Z</time>
      </trkpt>
      <trkpt lat="44.15944" lon="5.00525">
        <ele>368</ele>
        <time>2016-05-18T07:44:31Z</time>
      </trkpt>
      <trkpt lat="44.15944" lon="5.00537">
        <ele>368</ele>
        <time>2016-05-18T07:44:45Z</time>
      </trkpt>
      <trkpt lat="44.15944" lon="5.00549">
        <ele>370</ele>
        <time>2016-05-18T07:45:01Z</time>
      </trkpt>
      <trkpt lat="44.15947" lon="5.00561">
        <ele>375</ele>
        <time>2016-05-18T07:45:11Z</time>
      </trkpt>
      <trkpt lat="44.15946" lon="5.00573">
        <ele>376</ele>
        <time>2016-05-18T07:45:26Z</time>
      </trkpt>
      <trkpt lat="44.15946" lon="5.00585">
        <ele>374</ele>
        <time>2016-05-18T07:45:36Z</time>
      </trkpt>
      <trkpt lat="44.15945" lon="5.00596">
        <ele>374</ele>
        <time>2016-05-18T07:45:47Z</time>
      </trkpt>
      <trkpt lat="44.15944" lon="5.00607">
        <ele>375</ele>
        <time>2016-05-18T07:45:57Z</time>
      </trkpt>
      <trkpt lat="44.15944" lon="5.00618">
        <ele>375</ele>
        <time>2016-05-18T07:46:08Z</time>
      </trkpt>
      <trkpt lat="44.15943" lon="5.0063">
        <ele>371</ele>
        <time>2016-05-18T07:46:20Z</time>
      </trkpt>
      <trkpt lat="44.15944" lon="5.00641">
        <ele>376</ele>
        <time>2016-05-18T07:46:29Z</time>
      </trkpt>
      <trkpt lat="44.15945" lon="5.00652">
        <ele>377</ele>
        <time>2016-05-18T07:46:37Z</time>
      </trkpt>
      <trkpt lat="44.15943" lon="5.00663">
        <ele>381</ele>
        <time>2016-05-18T07:46:47Z</time>
      </trkpt>
      <trkpt lat="44.15942" lon="5.00675">
        <ele>383</ele>
        <time>2016-05-18T07:47:02Z</time>
      </trkpt>
      <trkpt lat="44.15939" lon="5.00687">
        <ele>386</ele>
        <time>2016-05-18T07:47:25Z</time>
      </trkpt>
      <trkpt lat="44.15936" lon="5.00699">
        <ele>389</ele>
        <time>2016-05-18T07:47:30Z</time>
      </trkpt>
      <trkpt lat="44.15933" lon="5.00712">
        <ele>386</ele>
        <time>2016-05-18T07:47:35Z</time>
      </trkpt>
      <trkpt lat="44.15934" lon="5.00724">
        <ele>390</ele>
        <time>2016-05-18T07:47:45Z</time>
      </trkpt>
      <trkpt lat="44.15933" lon="5.00735">
        <ele>391</ele>
        <time>2016-05-18T07:47:53Z</time>
      </trkpt>
      <trkpt lat="44.15929" lon="5.00747">
        <ele>389</ele>
        <time>2016-05-18T07:48:05Z</time>
      </trkpt>
      <trkpt lat="44.15932" lon="5.00758">
        <ele>391</ele>
        <time>2016-05-18T07:48:14Z</time>
      </trkpt>
      <trkpt lat="44.15934" lon="5.00769">
        <ele>395</ele>
        <time>2016-05-18T07:48:25Z</time>
      </trkpt>
      <trkpt lat="44.15934" lon="5.00781">
        <ele>397</ele>
        <time>2016-05-18T07:48:35Z</time>
      </trkpt>
      <trkpt lat="44.1593" lon="5.00792">
        <ele>399</ele>
        <time>2016-05-18T07:48:47Z</time>
      </trkpt>
      <trkpt lat="44.15928" lon="5.00803">
        <ele>401</ele>
        <time>2016-05-18T07:49:02Z</time>
      </trkpt>
      <trkpt lat="44.15924" lon="5.00812">
        <ele>401</ele>
        <time>2016-05-18T07:49:09Z</time>
      </trkpt>
      <trkpt lat="44.15922" lon="5.00823">
        <ele>403</ele>
        <time>2016-05-18T07:49:17Z</time>
      </trkpt>
      <trkpt lat="44.15921" lon="5.00835">
        <ele>404</ele>
        <time>2016-05-18T07:49:26Z</time>
      </trkpt>
      <trkpt lat="44.15921" lon="5.00846">
        <ele>404</ele>
        <time>2016-05-18T07:49:35Z</time>
      </trkpt>
      <trkpt lat="44.15925" lon="5.00858">
        <ele>406</ele>
        <time>2016-05-18T07:49:45Z</time>
      </trkpt>
      <trkpt lat="44.15926" lon="5.0087">
        <ele>404</ele>
        <time>2016-05-18T07:52:40Z</time>
      </trkpt>
      <trkpt lat="44.15933" lon="5.00877">
        <ele>410</ele>
        <time>2016-05-18T07:54:03Z</time>
      </trkpt>
      <trkpt lat="44.15936" lon="5.00888">
        <ele>408</ele>
        <time>2016-05-18T07:54:14Z</time>
      </trkpt>
      <trkpt lat="44.1594" lon="5.00897">
        <ele>410</ele>
        <time>2016-05-18T07:54:22Z</time>
      </trkpt>
      <trkpt lat="44.15943" lon="5.00908">
        <ele>410</ele>
        <time>2016-05-18T07:54:31Z</time>
      </trkpt>
      <trkpt lat="44.15949" lon="5.00916">
        <ele>414</ele>
        <time>2016-05-18T07:54:38Z</time>
      </trkpt>
      <trkpt lat="44.15951" lon="5.00928">
        <ele>413</ele>
        <time>2016-05-18T07:54:47Z</time>
      </trkpt>
      <trkpt lat="44.15942" lon="5.00929">
        <ele>415</ele>
        <time>2016-05-18T07:54:58Z</time>
      </trkpt>
      <trkpt lat="44.15938" lon="5.00919">
        <ele>414</ele>
        <time>2016-05-18T07:55:11Z</time>
      </trkpt>
      <trkpt lat="44.15931" lon="5.00911">
        <ele>413</ele>
        <time>2016-05-18T07:55:19Z</time>
      </trkpt>
      <trkpt lat="44.15927" lon="5.009">
        <ele>418</ele>
        <time>2016-05-18T07:55:26Z</time>
      </trkpt>
      <trkpt lat="44.15921" lon="5.00892">
        <ele>417</ele>
        <time>2016-05-18T07:55:36Z</time>
      </trkpt>
      <trkpt lat="44.15915" lon="5.00882">
        <ele>419</ele>
        <time>2016-05-18T07:55:44Z</time>
      </trkpt>
      <trkpt lat="44.15908" lon="5.00876">
        <ele>416</ele>
        <time>2016-05-18T07:55:55Z</time>
      </trkpt>
      <trkpt lat="44.15901" lon="5.00869">
        <ele>418</ele>
        <time>2016-05-18T07:56:04Z</time>
      </trkpt>
      <trkpt lat="44.15892" lon="5.00871">
        <ele>416</ele>
        <time>2016-05-18T07:56:19Z</time>
      </trkpt>
      <trkpt lat="44.15884" lon="5.00871">
        <ele>418</ele>
        <time>2016-05-18T07:56:30Z</time>
      </trkpt>
      <trkpt lat="44.15876" lon="5.00872">
        <ele>423</ele>
        <time>2016-05-18T07:56:41Z</time>
      </trkpt>
      <trkpt lat="44.15867" lon="5.00875">
        <ele>427</ele>
        <time>2016-05-18T07:56:49Z</time>
      </trkpt>
      <trkpt lat="44.15859" lon="5.00873">
        <ele>430</ele>
        <time>2016-05-18T07:57:00Z</time>
      </trkpt>
      <trkpt lat="44.15851" lon="5.00872">
        <ele>432</ele>
        <time>2016-05-18T07:57:11Z</time>
      </trkpt>
      <trkpt lat="44.15842" lon="5.00873">
        <ele>432</ele>
        <time>2016-05-18T07:57:20Z</time>
      </trkpt>
      <trkpt lat="44.15834" lon="5.00875">
        <ele>432</ele>
        <time>2016-05-18T07:57:29Z</time>
      </trkpt>
      <trkpt lat="44.15825" lon="5.00874">
        <ele>431</ele>
        <time>2016-05-18T07:57:39Z</time>
      </trkpt>
      <trkpt lat="44.15819" lon="5.00879">
        <ele>435</ele>
        <time>2016-05-18T07:58:04Z</time>
      </trkpt>
      <trkpt lat="44.1581" lon="5.00882">
        <ele>439</ele>
        <time>2016-05-18T07:58:24Z</time>
      </trkpt>
      <trkpt lat="44.15802" lon="5.00885">
        <ele>440</ele>
        <time>2016-05-18T07:58:40Z</time>
      </trkpt>
      <trkpt lat="44.15795" lon="5.00893">
        <ele>442</ele>
        <time>2016-05-18T07:59:00Z</time>
      </trkpt>
      <trkpt lat="44.1579" lon="5.00903">
        <ele>446</ele>
        <time>2016-05-18T07:59:21Z</time>
      </trkpt>
      <trkpt lat="44.15785" lon="5.00911">
        <ele>450</ele>
        <time>2016-05-18T07:59:36Z</time>
      </trkpt>
      <trkpt lat="44.15783" lon="5.00923">
        <ele>451</ele>
        <time>2016-05-18T07:59:52Z</time>
      </trkpt>
      <trkpt lat="44.15777" lon="5.00933">
        <ele>450</ele>
        <time>2016-05-18T08:00:08Z</time>
      </trkpt>
      <trkpt lat="44.15772" lon="5.0094">
        <ele>452</ele>
        <time>2016-05-18T08:00:22Z</time>
      </trkpt>
      <trkpt lat="44.15765" lon="5.00948">
        <ele>453</ele>
        <time>2016-05-18T08:00:45Z</time>
      </trkpt>
      <trkpt lat="44.1576" lon="5.00955">
        <ele>455</ele>
        <time>2016-05-18T08:01:02Z</time>
      </trkpt>
      <trkpt lat="44.15754" lon="5.00965">
        <ele>453</ele>
        <time>2016-05-18T08:01:13Z</time>
      </trkpt>
      <trkpt lat="44.15747" lon="5.00971">
        <ele>456</ele>
        <time>2016-05-18T08:01:25Z</time>
      </trkpt>
      <trkpt lat="44.1574" lon="5.00975">
        <ele>464</ele>
        <time>2016-05-18T08:01:47Z</time>
      </trkpt>
      <trkpt lat="44.15735" lon="5.00985">
        <ele>464</ele>
        <time>2016-05-18T08:02:00Z</time>
      </trkpt>
      <trkpt lat="44.1573" lon="5.00995">
        <ele>473</ele>
        <time>2016-05-18T08:02:19Z</time>
      </trkpt>
      <trkpt lat="44.15727" lon="5.01006">
        <ele>470</ele>
        <time>2016-05-18T08:02:37Z</time>
      </trkpt>
      <trkpt lat="44.15725" lon="5.01018">
        <ele>470</ele>
        <time>2016-05-18T08:03:47Z</time>
      </trkpt>
      <trkpt lat="44.15727" lon="5.01029">
        <ele>467</ele>
        <time>2016-05-18T08:04:02Z</time>
      </trkpt>
      <trkpt lat="44.15728" lon="5.01041">
        <ele>468</ele>
        <time>2016-05-18T08:04:16Z</time>
      </trkpt>
      <trkpt lat="44.1573" lon="5.01052">
        <ele>468</ele>
        <time>2016-05-18T08:04:31Z</time>
      </trkpt>
      <trkpt lat="44.15726" lon="5.01064">
        <ele>472</ele>
        <time>2016-05-18T08:04:43Z</time>
      </trkpt>
      <trkpt lat="44.15725" lon="5.01076">
        <ele>477</ele>
        <time>2016-05-18T08:04:56Z</time>
      </trkpt>
      <trkpt lat="44.15722" lon="5.01088">
        <ele>476</ele>
        <time>2016-05-18T08:05:12Z</time>
      </trkpt>
      <trkpt lat="44.15721" lon="5.01099">
        <ele>476</ele>
        <time>2016-05-18T08:05:24Z</time>
      </trkpt>
      <trkpt lat="44.15721" lon="5.01111">
        <ele>476</ele>
        <time>2016-05-18T08:05:37Z</time>
      </trkpt>
      <trkpt lat="44.15723" lon="5.01123">
        <ele>475</ele>
        <time>2016-05-18T08:05:47Z</time>
      </trkpt>
      <trkpt lat="44.15728" lon="5.01133">
        <ele>479</ele>
        <time>2016-05-18T08:06:13Z</time>
      </trkpt>
      <trkpt lat="44.15737" lon="5.01137">
        <ele>481</ele>
        <time>2016-05-18T08:06:22Z</time>
      </trkpt>
      <trkpt lat="44.15745" lon="5.01136">
        <ele>476</ele>
        <time>2016-05-18T08:06:40Z</time>
      </trkpt>
      <trkpt lat="44.15754" lon="5.01135">
        <ele>451</ele>
        <time>2016-05-18T08:06:54Z</time>
      </trkpt>
      <trkpt lat="44.15762" lon="5.01131">
        <ele>488</ele>
        <time>2016-05-18T08:07:12Z</time>
      </trkpt>
      <trkpt lat="44.1577" lon="5.01127">
        <ele>487</ele>
        <time>2016-05-18T08:07:33Z</time>
      </trkpt>
      <trkpt lat="44.15779" lon="5.01128">
        <ele>494</ele>
        <time>2016-05-18T08:08:07Z</time>
      </trkpt>
      <trkpt lat="44.15788" lon="5.01128">
        <ele>495</ele>
        <time>2016-05-18T08:08:26Z</time>
      </trkpt>
      <trkpt lat="44.15796" lon="5.01124">
        <ele>494</ele>
        <time>2016-05-18T08:08:58Z</time>
      </trkpt>
      <trkpt lat="44.15801" lon="5.01114">
        <ele>494</ele>
        <time>2016-05-18T08:09:11Z</time>
      </trkpt>
      <trkpt lat="44.15803" lon="5.01103">
        <ele>502</ele>
        <time>2016-05-18T08:09:26Z</time>
      </trkpt>
      <trkpt lat="44.15806" lon="5.01091">
        <ele>503</ele>
        <time>2016-05-18T08:09:45Z</time>
      </trkpt>
      <trkpt lat="44.15814" lon="5.01087">
        <ele>511</ele>
        <time>2016-05-18T08:10:33Z</time>
      </trkpt>
      <trkpt lat="44.15805" lon="5.0109">
        <ele>511</ele>
        <time>2016-05-18T08:19:41Z</time>
      </trkpt>
      <trkpt lat="44.15803" lon="5.01102">
        <ele>507</ele>
        <time>2016-05-18T08:20:03Z</time>
      </trkpt>
      <trkpt lat="44.15802" lon="5.01114">
        <ele>501</ele>
        <time>2016-05-18T08:20:17Z</time>
      </trkpt>
      <trkpt lat="44.15798" lon="5.01124">
        <ele>497</ele>
        <time>2016-05-18T08:20:38Z</time>
      </trkpt>
      <trkpt lat="44.1579" lon="5.01128">
        <ele>499</ele>
        <time>2016-05-18T08:20:56Z</time>
      </trkpt>
      <trkpt lat="44.15781" lon="5.01128">
        <ele>499</ele>
        <time>2016-05-18T08:21:15Z</time>
      </trkpt>
      <trkpt lat="44.15774" lon="5.01131">
        <ele>495</ele>
        <time>2016-05-18T08:21:35Z</time>
      </trkpt>
      <trkpt lat="44.15766" lon="5.01128">
        <ele>493</ele>
        <time>2016-05-18T08:21:48Z</time>
      </trkpt>
      <trkpt lat="44.15758" lon="5.01129">
        <ele>496</ele>
        <time>2016-05-18T08:22:04Z</time>
      </trkpt>
      <trkpt lat="44.15749" lon="5.01129">
        <ele>486</ele>
        <time>2016-05-18T08:22:16Z</time>
      </trkpt>
      <trkpt lat="44.1574" lon="5.01129">
        <ele>484</ele>
        <time>2016-05-18T08:22:33Z</time>
      </trkpt>
      <trkpt lat="44.15731" lon="5.01132">
        <ele>484</ele>
        <time>2016-05-18T08:22:42Z</time>
      </trkpt>
      <trkpt lat="44.15724" lon="5.01137">
        <ele>481</ele>
        <time>2016-05-18T08:22:52Z</time>
      </trkpt>
      <trkpt lat="44.15718" lon="5.01146">
        <ele>478</ele>
        <time>2016-05-18T08:23:02Z</time>
      </trkpt>
      <trkpt lat="44.15713" lon="5.01154">
        <ele>478</ele>
        <time>2016-05-18T08:23:12Z</time>
      </trkpt>
      <trkpt lat="44.15705" lon="5.0116">
        <ele>479</ele>
        <time>2016-05-18T08:23:48Z</time>
      </trkpt>
      <trkpt lat="44.15697" lon="5.01161">
        <ele>486</ele>
        <time>2016-05-18T08:24:06Z</time>
      </trkpt>
      <trkpt lat="44.15692" lon="5.01171">
        <ele>495</ele>
        <time>2016-05-18T08:24:35Z</time>
      </trkpt>
      <trkpt lat="44.15684" lon="5.01174">
        <ele>492</ele>
        <time>2016-05-18T08:24:49Z</time>
      </trkpt>
      <trkpt lat="44.15676" lon="5.01179">
        <ele>498</ele>
        <time>2016-05-18T08:25:11Z</time>
      </trkpt>
      <trkpt lat="44.15668" lon="5.01186">
        <ele>496</ele>
        <time>2016-05-18T08:25:21Z</time>
      </trkpt>
      <trkpt lat="44.15663" lon="5.01195">
        <ele>499</ele>
        <time>2016-05-18T08:25:42Z</time>
      </trkpt>
      <trkpt lat="44.15656" lon="5.012">
        <ele>500</ele>
        <time>2016-05-18T08:25:59Z</time>
      </trkpt>
      <trkpt lat="44.15649" lon="5.01208">
        <ele>505</ele>
        <time>2016-05-18T08:26:31Z</time>
      </trkpt>
      <trkpt lat="44.15644" lon="5.0121">
        <ele>506</ele>
        <time>2016-05-18T08:26:42Z</time>
      </trkpt>
      <trkpt lat="44.15636" lon="5.01214">
        <ele>509</ele>
        <time>2016-05-18T08:27:15Z</time>
      </trkpt>
      <trkpt lat="44.15629" lon="5.01219">
        <ele>510</ele>
        <time>2016-05-18T08:28:44Z</time>
      </trkpt>
      <trkpt lat="44.15623" lon="5.01225">
        <ele>515</ele>
        <time>2016-05-18T08:28:53Z</time>
      </trkpt>
      <trkpt lat="44.15616" lon="5.01229">
        <ele>514</ele>
        <time>2016-05-18T08:29:00Z</time>
      </trkpt>
      <trkpt lat="44.15609" lon="5.01236">
        <ele>517</ele>
        <time>2016-05-18T08:29:12Z</time>
      </trkpt>
      <trkpt lat="44.15601" lon="5.01243">
        <ele>515</ele>
        <time>2016-05-18T08:29:23Z</time>
      </trkpt>
      <trkpt lat="44.15598" lon="5.01253">
        <ele>520</ele>
        <time>2016-05-18T08:29:42Z</time>
      </trkpt>
      <trkpt lat="44.15593" lon="5.01262">
        <ele>518</ele>
        <time>2016-05-18T08:29:50Z</time>
      </trkpt>
      <trkpt lat="44.15586" lon="5.01269">
        <ele>522</ele>
        <time>2016-05-18T08:30:09Z</time>
      </trkpt>
      <trkpt lat="44.15581" lon="5.01279">
        <ele>523</ele>
        <time>2016-05-18T08:30:20Z</time>
      </trkpt>
      <trkpt lat="44.15574" lon="5.01287">
        <ele>526</ele>
        <time>2016-05-18T08:30:40Z</time>
      </trkpt>
      <trkpt lat="44.15569" lon="5.01297">
        <ele>528</ele>
        <time>2016-05-18T08:31:01Z</time>
      </trkpt>
      <trkpt lat="44.15561" lon="5.01299">
        <ele>528</ele>
        <time>2016-05-18T08:31:16Z</time>
      </trkpt>
      <trkpt lat="44.15553" lon="5.01306">
        <ele>534</ele>
        <time>2016-05-18T08:31:42Z</time>
      </trkpt>
      <trkpt lat="44.15552" lon="5.01316">
        <ele>537</ele>
        <time>2016-05-18T08:32:04Z</time>
      </trkpt>
      <trkpt lat="44.15547" lon="5.01325">
        <ele>541</ele>
        <time>2016-05-18T08:32:26Z</time>
      </trkpt>
      <trkpt lat="44.15544" lon="5.01336">
        <ele>542</ele>
        <time>2016-05-18T08:32:42Z</time>
      </trkpt>
      <trkpt lat="44.15544" lon="5.01348">
        <ele>542</ele>
        <time>2016-05-18T08:32:54Z</time>
      </trkpt>
      <trkpt lat="44.15541" lon="5.0136">
        <ele>543</ele>
        <time>2016-05-18T08:33:09Z</time>
      </trkpt>
      <trkpt lat="44.15538" lon="5.01371">
        <ele>545</ele>
        <time>2016-05-18T08:33:28Z</time>
      </trkpt>
      <trkpt lat="44.15533" lon="5.01382">
        <ele>546</ele>
        <time>2016-05-18T08:33:50Z</time>
      </trkpt>
      <trkpt lat="44.15529" lon="5.01392">
        <ele>549</ele>
        <time>2016-05-18T08:34:15Z</time>
      </trkpt>
      <trkpt lat="44.15524" lon="5.01402">
        <ele>553</ele>
        <time>2016-05-18T08:34:36Z</time>
      </trkpt>
      <trkpt lat="44.15519" lon="5.01412">
        <ele>558</ele>
        <time>2016-05-18T08:35:12Z</time>
      </trkpt>
      <trkpt lat="44.15513" lon="5.01421">
        <ele>561</ele>
        <time>2016-05-18T08:36:43Z</time>
      </trkpt>
      <trkpt lat="44.15507" lon="5.01431">
        <ele>562</ele>
        <time>2016-05-18T08:37:44Z</time>
      </trkpt>
      <trkpt lat="44.155" lon="5.01438">
        <ele>564</ele>
        <time>2016-05-18T08:38:08Z</time>
      </trkpt>
      <trkpt lat="44.15496" lon="5.01448">
        <ele>566</ele>
        <time>2016-05-18T08:38:28Z</time>
      </trkpt>
      <trkpt lat="44.15489" lon="5.01455">
        <ele>569</ele>
        <time>2016-05-18T08:38:53Z</time>
      </trkpt>
      <trkpt lat="44.15483" lon="5.01464">
        <ele>573</ele>
        <time>2016-05-18T08:39:15Z</time>
      </trkpt>
      <trkpt lat="44.15479" lon="5.01474">
        <ele>576</ele>
        <time>2016-05-18T08:39:46Z</time>
      </trkpt>
      <trkpt lat="44.15471" lon="5.01481">
        <ele>576</ele>
        <time>2016-05-18T08:40:06Z</time>
      </trkpt>
      <trkpt lat="44.15472" lon="5.01493">
        <ele>578</ele>
        <time>2016-05-18T08:40:18Z</time>
      </trkpt>
      <trkpt lat="44.15468" lon="5.01505">
        <ele>580</ele>
        <time>2016-05-18T08:40:39Z</time>
      </trkpt>
      <trkpt lat="44.15463" lon="5.01514">
        <ele>582</ele>
        <time>2016-05-18T08:40:57Z</time>
      </trkpt>
      <trkpt lat="44.15461" lon="5.01526">
        <ele>583</ele>
        <time>2016-05-18T08:41:12Z</time>
      </trkpt>
      <trkpt lat="44.15463" lon="5.01538">
        <ele>583</ele>
        <time>2016-05-18T08:41:22Z</time>
      </trkpt>
      <trkpt lat="44.15465" lon="5.01549">
        <ele>585</ele>
        <time>2016-05-18T08:41:34Z</time>
      </trkpt>
      <trkpt lat="44.15467" lon="5.0156">
        <ele>585</ele>
        <time>2016-05-18T08:41:44Z</time>
      </trkpt>
      <trkpt lat="44.15469" lon="5.01572">
        <ele>586</ele>
        <time>2016-05-18T08:41:57Z</time>
      </trkpt>
      <trkpt lat="44.15469" lon="5.01583">
        <ele>587</ele>
        <time>2016-05-18T08:42:10Z</time>
      </trkpt>
      <trkpt lat="44.15472" lon="5.01595">
        <ele>590</ele>
        <time>2016-05-18T08:42:23Z</time>
      </trkpt>
      <trkpt lat="44.15474" lon="5.01606">
        <ele>590</ele>
        <time>2016-05-18T08:42:36Z</time>
      </trkpt>
      <trkpt lat="44.15473" lon="5.01618">
        <ele>590</ele>
        <time>2016-05-18T08:42:51Z</time>
      </trkpt>
      <trkpt lat="44.15473" lon="5.01631">
        <ele>592</ele>
        <time>2016-05-18T08:43:07Z</time>
      </trkpt>
      <trkpt lat="44.15472" lon="5.01643">
        <ele>593</ele>
        <time>2016-05-18T08:43:23Z</time>
      </trkpt>
      <trkpt lat="44.15472" lon="5.01655">
        <ele>597</ele>
        <time>2016-05-18T08:43:39Z</time>
      </trkpt>
      <trkpt lat="44.15473" lon="5.01667">
        <ele>598</ele>
        <time>2016-05-18T08:43:56Z</time>
      </trkpt>
      <trkpt lat="44.15475" lon="5.01679">
        <ele>596</ele>
        <time>2016-05-18T08:44:14Z</time>
      </trkpt>
      <trkpt lat="44.15473" lon="5.0169">
        <ele>597</ele>
        <time>2016-05-18T08:44:29Z</time>
      </trkpt>
      <trkpt lat="44.15472" lon="5.01702">
        <ele>598</ele>
        <time>2016-05-18T08:44:40Z</time>
      </trkpt>
      <trkpt lat="44.1547" lon="5.01713">
        <ele>600</ele>
        <time>2016-05-18T08:44:55Z</time>
      </trkpt>
      <trkpt lat="44.15468" lon="5.01725">
        <ele>600</ele>
        <time>2016-05-18T08:45:09Z</time>
      </trkpt>
      <trkpt lat="44.15464" lon="5.01737">
        <ele>600</ele>
        <time>2016-05-18T08:45:25Z</time>
      </trkpt>
      <trkpt lat="44.15465" lon="5.01749">
        <ele>599</ele>
        <time>2016-05-18T08:45:37Z</time>
      </trkpt>
      <trkpt lat="44.15463" lon="5.01761">
        <ele>601</ele>
        <time>2016-05-18T08:45:55Z</time>
      </trkpt>
      <trkpt lat="44.15463" lon="5.01773">
        <ele>603</ele>
        <time>2016-05-18T08:46:39Z</time>
      </trkpt>
      <trkpt lat="44.15461" lon="5.01785">
        <ele>603</ele>
        <time>2016-05-18T08:46:56Z</time>
      </trkpt>
      <trkpt lat="44.15463" lon="5.01797">
        <ele>606</ele>
        <time>2016-05-18T08:47:14Z</time>
      </trkpt>
      <trkpt lat="44.15462" lon="5.01809">
        <ele>606</ele>
        <time>2016-05-18T08:47:32Z</time>
      </trkpt>
      <trkpt lat="44.15465" lon="5.01821">
        <ele>607</ele>
        <time>2016-05-18T08:47:48Z</time>
      </trkpt>
      <trkpt lat="44.15463" lon="5.01832">
        <ele>604</ele>
        <time>2016-05-18T08:48:08Z</time>
      </trkpt>
      <trkpt lat="44.15467" lon="5.01843">
        <ele>609</ele>
        <time>2016-05-18T08:48:51Z</time>
      </trkpt>
      <trkpt lat="44.15471" lon="5.01854">
        <ele>604</ele>
        <time>2016-05-18T08:49:06Z</time>
      </trkpt>
      <trkpt lat="44.15476" lon="5.01864">
        <ele>603</ele>
        <time>2016-05-18T08:49:21Z</time>
      </trkpt>
      <trkpt lat="44.1548" lon="5.01875">
        <ele>602</ele>
        <time>2016-05-18T08:49:35Z</time>
      </trkpt>
      <trkpt lat="44.15483" lon="5.01886">
        <ele>601</ele>
        <time>2016-05-18T08:49:57Z</time>
      </trkpt>
      <trkpt lat="44.15486" lon="5.01898">
        <ele>602</ele>
        <time>2016-05-18T08:50:16Z</time>
      </trkpt>
      <trkpt lat="44.15484" lon="5.01909">
        <ele>604</ele>
        <time>2016-05-18T08:50:37Z</time>
      </trkpt>
      <trkpt lat="44.15484" lon="5.01922">
        <ele>613</ele>
        <time>2016-05-18T08:51:13Z</time>
      </trkpt>
      <trkpt lat="44.15482" lon="5.01933">
        <ele>613</ele>
        <time>2016-05-18T08:51:44Z</time>
      </trkpt>
      <trkpt lat="44.15482" lon="5.01945">
        <ele>612</ele>
        <time>2016-05-18T08:51:59Z</time>
      </trkpt>
      <trkpt lat="44.1548" lon="5.01957">
        <ele>610</ele>
        <time>2016-05-18T08:52:30Z</time>
      </trkpt>
      <trkpt lat="44.15481" lon="5.01968">
        <ele>611</ele>
        <time>2016-05-18T08:52:47Z</time>
      </trkpt>
      <trkpt lat="44.15479" lon="5.0198">
        <ele>609</ele>
        <time>2016-05-18T08:53:01Z</time>
      </trkpt>
      <trkpt lat="44.15476" lon="5.01991">
        <ele>610</ele>
        <time>2016-05-18T08:53:15Z</time>
      </trkpt>
      <trkpt lat="44.15473" lon="5.02002">
        <ele>613</ele>
        <time>2016-05-18T08:53:29Z</time>
      </trkpt>
      <trkpt lat="44.15467" lon="5.02011">
        <ele>613</ele>
        <time>2016-05-18T08:53:56Z</time>
      </trkpt>
      <trkpt lat="44.15462" lon="5.0202">
        <ele>613</ele>
        <time>2016-05-18T08:54:39Z</time>
      </trkpt>
      <trkpt lat="44.15463" lon="5.02032">
        <ele>618</ele>
        <time>2016-05-18T08:55:02Z</time>
      </trkpt>
      <trkpt lat="44.15466" lon="5.02043">
        <ele>619</ele>
        <time>2016-05-18T08:55:22Z</time>
      </trkpt>
      <trkpt lat="44.15472" lon="5.02052">
        <ele>621</ele>
        <time>2016-05-18T08:55:41Z</time>
      </trkpt>
      <trkpt lat="44.15474" lon="5.02063">
        <ele>620</ele>
        <time>2016-05-18T08:55:58Z</time>
      </trkpt>
      <trkpt lat="44.15477" lon="5.02075">
        <ele>616</ele>
        <time>2016-05-18T08:56:22Z</time>
      </trkpt>
      <trkpt lat="44.15482" lon="5.02084">
        <ele>611</ele>
        <time>2016-05-18T08:56:51Z</time>
      </trkpt>
      <trkpt lat="44.15488" lon="5.02093">
        <ele>608</ele>
        <time>2016-05-18T08:57:36Z</time>
      </trkpt>
      <trkpt lat="44.1548" lon="5.02091">
        <ele>616</ele>
        <time>2016-05-18T08:59:14Z</time>
      </trkpt>
      <trkpt lat="44.15472" lon="5.02092">
        <ele>614</ele>
        <time>2016-05-18T08:59:54Z</time>
      </trkpt>
      <trkpt lat="44.15478" lon="5.02084">
        <ele>609</ele>
        <time>2016-05-18T09:12:12Z</time>
      </trkpt>
      <trkpt lat="44.15474" lon="5.02073">
        <ele>611</ele>
        <time>2016-05-18T09:12:45Z</time>
      </trkpt>
      <trkpt lat="44.15474" lon="5.02062">
        <ele>608</ele>
        <time>2016-05-18T09:13:01Z</time>
      </trkpt>
      <trkpt lat="44.15471" lon="5.0205">
        <ele>611</ele>
        <time>2016-05-18T09:13:28Z</time>
      </trkpt>
      <trkpt lat="44.15467" lon="5.02039">
        <ele>613</ele>
        <time>2016-05-18T09:13:39Z</time>
      </trkpt>
      <trkpt lat="44.15465" lon="5.02027">
        <ele>613</ele>
        <time>2016-05-18T09:14:00Z</time>
      </trkpt>
      <trkpt lat="44.15463" lon="5.02015">
        <ele>611</ele>
        <time>2016-05-18T09:14:24Z</time>
      </trkpt>
      <trkpt lat="44.15457" lon="5.02008">
        <ele>613</ele>
        <time>2016-05-18T09:15:53Z</time>
      </trkpt>
      <trkpt lat="44.1545" lon="5.02015">
        <ele>607</ele>
        <time>2016-05-18T09:31:28Z</time>
      </trkpt>
      <trkpt lat="44.15445" lon="5.02026">
        <ele>587</ele>
        <time>2016-05-18T09:33:31Z</time>
      </trkpt>
      <trkpt lat="44.15437" lon="5.02027">
        <ele>593</ele>
        <time>2016-05-18T09:34:21Z</time>
      </trkpt>
      <trkpt lat="44.15443" lon="5.02043">
        <ele>561</ele>
        <time>2016-05-18T09:34:34Z</time>
      </trkpt>
      <trkpt lat="44.15443" lon="5.02022">
        <ele>577</ele>
        <time>2016-05-18T09:34:39Z</time>
      </trkpt>
      <trkpt lat="44.15434" lon="5.02021">
        <ele>585</ele>
        <time>2016-05-18T09:35:27Z</time>
      </trkpt>
      <trkpt lat="44.15432" lon="5.02009">
        <ele>581</ele>
        <time>2016-05-18T09:35:50Z</time>
      </trkpt>
      <trkpt lat="44.15431" lon="5.01997">
        <ele>583</ele>
        <time>2016-05-18T09:36:00Z</time>
      </trkpt>
      <trkpt lat="44.15425" lon="5.01988">
        <ele>581</ele>
        <time>2016-05-18T09:36:21Z</time>
      </trkpt>
      <trkpt lat="44.15422" lon="5.01977">
        <ele>573</ele>
        <time>2016-05-18T09:36:37Z</time>
      </trkpt>
      <trkpt lat="44.15419" lon="5.01966">
        <ele>569</ele>
        <time>2016-05-18T09:36:50Z</time>
      </trkpt>
      <trkpt lat="44.15413" lon="5.01958">
        <ele>566</ele>
        <time>2016-05-18T09:37:25Z</time>
      </trkpt>
      <trkpt lat="44.15406" lon="5.01951">
        <ele>564</ele>
        <time>2016-05-18T09:37:46Z</time>
      </trkpt>
      <trkpt lat="44.15401" lon="5.01942">
        <ele>561</ele>
        <time>2016-05-18T09:38:45Z</time>
      </trkpt>
      <trkpt lat="44.15394" lon="5.01934">
        <ele>555</ele>
        <time>2016-05-18T09:39:32Z</time>
      </trkpt>
      <trkpt lat="44.1539" lon="5.01924">
        <ele>552</ele>
        <time>2016-05-18T09:40:48Z</time>
      </trkpt>
      <trkpt lat="44.15381" lon="5.01927">
        <ele>554</ele>
        <time>2016-05-18T09:41:58Z</time>
      </trkpt>
      <trkpt lat="44.15373" lon="5.0193">
        <ele>540</ele>
        <time>2016-05-18T09:43:09Z</time>
      </trkpt>
      <trkpt lat="44.15369" lon="5.0194">
        <ele>539</ele>
        <time>2016-05-18T09:43:38Z</time>
      </trkpt>
      <trkpt lat="44.15362" lon="5.01934">
        <ele>537</ele>
        <time>2016-05-18T09:44:21Z</time>
      </trkpt>
      <trkpt lat="44.15356" lon="5.01924">
        <ele>527</ele>
        <time>2016-05-18T09:45:08Z</time>
      </trkpt>
      <trkpt lat="44.15348" lon="5.01925">
        <ele>525</ele>
        <time>2016-05-18T09:45:53Z</time>
      </trkpt>
      <trkpt lat="44.15343" lon="5.01935">
        <ele>520</ele>
        <time>2016-05-18T09:46:26Z</time>
      </trkpt>
      <trkpt lat="44.15336" lon="5.01941">
        <ele>514</ele>
        <time>2016-05-18T09:47:06Z</time>
      </trkpt>
      <trkpt lat="44.15328" lon="5.01944">
        <ele>506</ele>
        <time>2016-05-18T09:47:33Z</time>
      </trkpt>
      <trkpt lat="44.1532" lon="5.0195">
        <ele>502</ele>
        <time>2016-05-18T09:48:04Z</time>
      </trkpt>
      <trkpt lat="44.15312" lon="5.01951">
        <ele>502</ele>
        <time>2016-05-18T09:48:46Z</time>
      </trkpt>
      <trkpt lat="44.15307" lon="5.01941">
        <ele>502</ele>
        <time>2016-05-18T09:49:13Z</time>
      </trkpt>
      <trkpt lat="44.15302" lon="5.01931">
        <ele>496</ele>
        <time>2016-05-18T09:49:54Z</time>
      </trkpt>
      <trkpt lat="44.15295" lon="5.01938">
        <ele>496</ele>
        <time>2016-05-18T09:50:01Z</time>
      </trkpt>
      <trkpt lat="44.15293" lon="5.01949">
        <ele>493</ele>
        <time>2016-05-18T09:50:11Z</time>
      </trkpt>
      <trkpt lat="44.15293" lon="5.01962">
        <ele>489</ele>
        <time>2016-05-18T09:51:24Z</time>
      </trkpt>
      <trkpt lat="44.15288" lon="5.01971">
        <ele>496</ele>
        <time>2016-05-18T09:56:22Z</time>
      </trkpt>
      <trkpt lat="44.15283" lon="5.0198">
        <ele>497</ele>
        <time>2016-05-18T09:56:30Z</time>
      </trkpt>
      <trkpt lat="44.15276" lon="5.01988">
        <ele>497</ele>
        <time>2016-05-18T09:56:37Z</time>
      </trkpt>
      <trkpt lat="44.15269" lon="5.01991">
        <ele>494</ele>
        <time>2016-05-18T09:56:43Z</time>
      </trkpt>
      <trkpt lat="44.1526" lon="5.01995">
        <ele>491</ele>
        <time>2016-05-18T09:56:50Z</time>
      </trkpt>
      <trkpt lat="44.15253" lon="5.01998">
        <ele>491</ele>
        <time>2016-05-18T09:56:57Z</time>
      </trkpt>
      <trkpt lat="44.15244" lon="5.01998">
        <ele>489</ele>
        <time>2016-05-18T09:57:08Z</time>
      </trkpt>
      <trkpt lat="44.15236" lon="5.02002">
        <ele>490</ele>
        <time>2016-05-18T09:57:27Z</time>
      </trkpt>
      <trkpt lat="44.15229" lon="5.02006">
        <ele>495</ele>
        <time>2016-05-18T09:57:34Z</time>
      </trkpt>
      <trkpt lat="44.15221" lon="5.02008">
        <ele>497</ele>
        <time>2016-05-18T09:57:43Z</time>
      </trkpt>
      <trkpt lat="44.15217" lon="5.02019">
        <ele>508</ele>
        <time>2016-05-18T09:58:28Z</time>
      </trkpt>
      <trkpt lat="44.1522" lon="5.02031">
        <ele>511</ele>
        <time>2016-05-18T09:58:48Z</time>
      </trkpt>
      <trkpt lat="44.15214" lon="5.0204">
        <ele>508</ele>
        <time>2016-05-18T09:59:12Z</time>
      </trkpt>
      <trkpt lat="44.15211" lon="5.02051">
        <ele>515</ele>
        <time>2016-05-18T09:59:37Z</time>
      </trkpt>
      <trkpt lat="44.1521" lon="5.02063">
        <ele>517</ele>
        <time>2016-05-18T09:59:47Z</time>
      </trkpt>
      <trkpt lat="44.15211" lon="5.02074">
        <ele>516</ele>
        <time>2016-05-18T09:59:59Z</time>
      </trkpt>
      <trkpt lat="44.15211" lon="5.02085">
        <ele>517</ele>
        <time>2016-05-18T10:00:06Z</time>
      </trkpt>
      <trkpt lat="44.15211" lon="5.02097">
        <ele>518</ele>
        <time>2016-05-18T10:00:14Z</time>
      </trkpt>
      <trkpt lat="44.15209" lon="5.02108">
        <ele>514</ele>
        <time>2016-05-18T10:00:23Z</time>
      </trkpt>
      <trkpt lat="44.15211" lon="5.02121">
        <ele>517</ele>
        <time>2016-05-18T10:00:32Z</time>
      </trkpt>
      <trkpt lat="44.1521" lon="5.02133">
        <ele>517</ele>
        <time>2016-05-18T10:00:41Z</time>
      </trkpt>
      <trkpt lat="44.15205" lon="5.02141">
        <ele>516</ele>
        <time>2016-05-18T10:00:51Z</time>
      </trkpt>
      <trkpt lat="44.15202" lon="5.02153">
        <ele>518</ele>
        <time>2016-05-18T10:00:59Z</time>
      </trkpt>
      <trkpt lat="44.15198" lon="5.02163">
        <ele>517</ele>
        <time>2016-05-18T10:01:07Z</time>
      </trkpt>
      <trkpt lat="44.15194" lon="5.02173">
        <ele>515</ele>
        <time>2016-05-18T10:01:15Z</time>
      </trkpt>
      <trkpt lat="44.15189" lon="5.02182">
        <ele>515</ele>
        <time>2016-05-18T10:01:21Z</time>
      </trkpt>
      <trkpt lat="44.15182" lon="5.0219">
        <ele>510</ele>
        <time>2016-05-18T10:01:28Z</time>
      </trkpt>
      <trkpt lat="44.15177" lon="5.02199">
        <ele>511</ele>
        <time>2016-05-18T10:01:35Z</time>
      </trkpt>
      <trkpt lat="44.15175" lon="5.02211">
        <ele>515</ele>
        <time>2016-05-18T10:01:43Z</time>
      </trkpt>
      <trkpt lat="44.15171" lon="5.02221">
        <ele>513</ele>
        <time>2016-05-18T10:01:49Z</time>
      </trkpt>
      <trkpt lat="44.15165" lon="5.02226">
        <ele>511</ele>
        <time>2016-05-18T10:01:55Z</time>
      </trkpt>
      <trkpt lat="44.15159" lon="5.02233">
        <ele>507</ele>
        <time>2016-05-18T10:02:00Z</time>
      </trkpt>
      <trkpt lat="44.15155" lon="5.02243">
        <ele>508</ele>
        <time>2016-05-18T10:02:07Z</time>
      </trkpt>
      <trkpt lat="44.15151" lon="5.02253">
        <ele>509</ele>
        <time>2016-05-18T10:02:14Z</time>
      </trkpt>
      <trkpt lat="44.15147" lon="5.02264">
        <ele>513</ele>
        <time>2016-05-18T10:02:20Z</time>
      </trkpt>
      <trkpt lat="44.15143" lon="5.02275">
        <ele>514</ele>
        <time>2016-05-18T10:02:28Z</time>
      </trkpt>
      <trkpt lat="44.1514" lon="5.02284">
        <ele>514</ele>
        <time>2016-05-18T10:02:34Z</time>
      </trkpt>
      <trkpt lat="44.15136" lon="5.02295">
        <ele>514</ele>
        <time>2016-05-18T10:02:41Z</time>
      </trkpt>
      <trkpt lat="44.15131" lon="5.02304">
        <ele>511</ele>
        <time>2016-05-18T10:02:47Z</time>
      </trkpt>
      <trkpt lat="44.15127" lon="5.02315">
        <ele>511</ele>
        <time>2016-05-18T10:02:54Z</time>
      </trkpt>
      <trkpt lat="44.15124" lon="5.02326">
        <ele>512</ele>
        <time>2016-05-18T10:03:01Z</time>
      </trkpt>
      <trkpt lat="44.15121" lon="5.02338">
        <ele>512</ele>
        <time>2016-05-18T10:03:09Z</time>
      </trkpt>
      <trkpt lat="44.15117" lon="5.02348">
        <ele>512</ele>
        <time>2016-05-18T10:03:16Z</time>
      </trkpt>
      <trkpt lat="44.15115" lon="5.0236">
        <ele>514</ele>
        <time>2016-05-18T10:03:25Z</time>
      </trkpt>
      <trkpt lat="44.15112" lon="5.02371">
        <ele>513</ele>
        <time>2016-05-18T10:03:52Z</time>
      </trkpt>
      <trkpt lat="44.1511" lon="5.02382">
        <ele>512</ele>
        <time>2016-05-18T10:03:59Z</time>
      </trkpt>
      <trkpt lat="44.15108" lon="5.02393">
        <ele>514</ele>
        <time>2016-05-18T10:04:08Z</time>
      </trkpt>
      <trkpt lat="44.15108" lon="5.02405">
        <ele>515</ele>
        <time>2016-05-18T10:04:19Z</time>
      </trkpt>
      <trkpt lat="44.15102" lon="5.02415">
        <ele>511</ele>
        <time>2016-05-18T10:04:26Z</time>
      </trkpt>
      <trkpt lat="44.15099" lon="5.02426">
        <ele>512</ele>
        <time>2016-05-18T10:04:35Z</time>
      </trkpt>
      <trkpt lat="44.15096" lon="5.02436">
        <ele>511</ele>
        <time>2016-05-18T10:04:43Z</time>
      </trkpt>
      <trkpt lat="44.15094" lon="5.02447">
        <ele>515</ele>
        <time>2016-05-18T10:04:55Z</time>
      </trkpt>
      <trkpt lat="44.15093" lon="5.02459">
        <ele>513</ele>
        <time>2016-05-18T10:05:04Z</time>
      </trkpt>
      <trkpt lat="44.15091" lon="5.02471">
        <ele>514</ele>
        <time>2016-05-18T10:05:13Z</time>
      </trkpt>
      <trkpt lat="44.1509" lon="5.02482">
        <ele>513</ele>
        <time>2016-05-18T10:05:29Z</time>
      </trkpt>
      <trkpt lat="44.1509" lon="5.02495">
        <ele>514</ele>
        <time>2016-05-18T10:05:46Z</time>
      </trkpt>
      <trkpt lat="44.15086" lon="5.02505">
        <ele>514</ele>
        <time>2016-05-18T10:05:56Z</time>
      </trkpt>
      <trkpt lat="44.15083" lon="5.02516">
        <ele>513</ele>
        <time>2016-05-18T10:06:04Z</time>
      </trkpt>
      <trkpt lat="44.15081" lon="5.02527">
        <ele>514</ele>
        <time>2016-05-18T10:06:13Z</time>
      </trkpt>
      <trkpt lat="44.15078" lon="5.02538">
        <ele>516</ele>
        <time>2016-05-18T10:06:24Z</time>
      </trkpt>
      <trkpt lat="44.15075" lon="5.02549">
        <ele>516</ele>
        <time>2016-05-18T10:06:34Z</time>
      </trkpt>
      <trkpt lat="44.15072" lon="5.02559">
        <ele>517</ele>
        <time>2016-05-18T10:06:42Z</time>
      </trkpt>
      <trkpt lat="44.15069" lon="5.0257">
        <ele>515</ele>
        <time>2016-05-18T10:06:51Z</time>
      </trkpt>
      <trkpt lat="44.15066" lon="5.02581">
        <ele>514</ele>
        <time>2016-05-18T10:07:00Z</time>
      </trkpt>
      <trkpt lat="44.15064" lon="5.02593">
        <ele>517</ele>
        <time>2016-05-18T10:07:16Z</time>
      </trkpt>
      <trkpt lat="44.15062" lon="5.02604">
        <ele>517</ele>
        <time>2016-05-18T10:07:30Z</time>
      </trkpt>
      <trkpt lat="44.1506" lon="5.02616">
        <ele>516</ele>
        <time>2016-05-18T10:07:39Z</time>
      </trkpt>
      <trkpt lat="44.15057" lon="5.02627">
        <ele>513</ele>
        <time>2016-05-18T10:07:50Z</time>
      </trkpt>
      <trkpt lat="44.15053" lon="5.02637">
        <ele>511</ele>
        <time>2016-05-18T10:07:59Z</time>
      </trkpt>
      <trkpt lat="44.15049" lon="5.02648">
        <ele>511</ele>
        <time>2016-05-18T10:08:09Z</time>
      </trkpt>
      <trkpt lat="44.15048" lon="5.0266">
        <ele>510</ele>
        <time>2016-05-18T10:08:19Z</time>
      </trkpt>
      <trkpt lat="44.15043" lon="5.0267">
        <ele>511</ele>
        <time>2016-05-18T10:08:36Z</time>
      </trkpt>
      <trkpt lat="44.1504" lon="5.02681">
        <ele>506</ele>
        <time>2016-05-18T11:03:07Z</time>
      </trkpt>
      <trkpt lat="44.15036" lon="5.02689">
        <ele>507</ele>
        <time>2016-05-18T11:03:21Z</time>
      </trkpt>
      <trkpt lat="44.15034" lon="5.02699">
        <ele>507</ele>
        <time>2016-05-18T11:03:29Z</time>
      </trkpt>
      <trkpt lat="44.1503" lon="5.0271">
        <ele>503</ele>
        <time>2016-05-18T11:03:43Z</time>
      </trkpt>
      <trkpt lat="44.15028" lon="5.0272">
        <ele>504</ele>
        <time>2016-05-18T11:03:50Z</time>
      </trkpt>
      <trkpt lat="44.15028" lon="5.02732">
        <ele>504</ele>
        <time>2016-05-18T11:04:03Z</time>
      </trkpt>
      <trkpt lat="44.15028" lon="5.02744">
        <ele>506</ele>
        <time>2016-05-18T11:04:12Z</time>
      </trkpt>
      <trkpt lat="44.15028" lon="5.02756">
        <ele>499</ele>
        <time>2016-05-18T11:04:31Z</time>
      </trkpt>
      <trkpt lat="44.15028" lon="5.02767">
        <ele>500</ele>
        <time>2016-05-18T11:04:43Z</time>
      </trkpt>
      <trkpt lat="44.15029" lon="5.02779">
        <ele>503</ele>
        <time>2016-05-18T11:05:00Z</time>
      </trkpt>
      <trkpt lat="44.15026" lon="5.0279">
        <ele>502</ele>
        <time>2016-05-18T11:05:07Z</time>
      </trkpt>
      <trkpt lat="44.15022" lon="5.02801">
        <ele>501</ele>
        <time>2016-05-18T11:05:18Z</time>
      </trkpt>
      <trkpt lat="44.15021" lon="5.02811">
        <ele>494</ele>
        <time>2016-05-18T11:05:34Z</time>
      </trkpt>
      <trkpt lat="44.15017" lon="5.02821">
        <ele>493</ele>
        <time>2016-05-18T11:05:39Z</time>
      </trkpt>
      <trkpt lat="44.15014" lon="5.02832">
        <ele>495</ele>
        <time>2016-05-18T11:05:46Z</time>
      </trkpt>
      <trkpt lat="44.15013" lon="5.02842">
        <ele>498</ele>
        <time>2016-05-18T11:05:53Z</time>
      </trkpt>
      <trkpt lat="44.15011" lon="5.02853">
        <ele>496</ele>
        <time>2016-05-18T11:06:17Z</time>
      </trkpt>
      <trkpt lat="44.15009" lon="5.02864">
        <ele>493</ele>
        <time>2016-05-18T11:06:33Z</time>
      </trkpt>
      <trkpt lat="44.1501" lon="5.02876">
        <ele>493</ele>
        <time>2016-05-18T11:06:47Z</time>
      </trkpt>
      <trkpt lat="44.1501" lon="5.02887">
        <ele>485</ele>
        <time>2016-05-18T11:07:30Z</time>
      </trkpt>
      <trkpt lat="44.15013" lon="5.02898">
        <ele>486</ele>
        <time>2016-05-18T11:07:40Z</time>
      </trkpt>
      <trkpt lat="44.15016" lon="5.02908">
        <ele>486</ele>
        <time>2016-05-18T11:07:47Z</time>
      </trkpt>
      <trkpt lat="44.15016" lon="5.02918">
        <ele>485</ele>
        <time>2016-05-18T11:07:54Z</time>
      </trkpt>
      <trkpt lat="44.15015" lon="5.02929">
        <ele>486</ele>
        <time>2016-05-18T11:07:59Z</time>
      </trkpt>
      <trkpt lat="44.15015" lon="5.02941">
        <ele>485</ele>
        <time>2016-05-18T11:08:07Z</time>
      </trkpt>
      <trkpt lat="44.15012" lon="5.02953">
        <ele>484</ele>
        <time>2016-05-18T11:08:16Z</time>
      </trkpt>
      <trkpt lat="44.15016" lon="5.02963">
        <ele>481</ele>
        <time>2016-05-18T11:08:29Z</time>
      </trkpt>
      <trkpt lat="44.1502" lon="5.02974">
        <ele>480</ele>
        <time>2016-05-18T11:08:39Z</time>
      </trkpt>
      <trkpt lat="44.15014" lon="5.02983">
        <ele>479</ele>
        <time>2016-05-18T11:08:51Z</time>
      </trkpt>
      <trkpt lat="44.15019" lon="5.02991">
        <ele>477</ele>
        <time>2016-05-18T11:09:08Z</time>
      </trkpt>
      <trkpt lat="44.15023" lon="5.03003">
        <ele>476</ele>
        <time>2016-05-18T11:09:15Z</time>
      </trkpt>
      <trkpt lat="44.15027" lon="5.03014">
        <ele>475</ele>
        <time>2016-05-18T11:09:26Z</time>
      </trkpt>
      <trkpt lat="44.15031" lon="5.03025">
        <ele>474</ele>
        <time>2016-05-18T11:09:42Z</time>
      </trkpt>
      <trkpt lat="44.15036" lon="5.03035">
        <ele>474</ele>
        <time>2016-05-18T11:10:05Z</time>
      </trkpt>
      <trkpt lat="44.15043" lon="5.03043">
        <ele>477</ele>
        <time>2016-05-18T11:10:23Z</time>
      </trkpt>
      <trkpt lat="44.15051" lon="5.03049">
        <ele>477</ele>
        <time>2016-05-18T11:10:42Z</time>
      </trkpt>
      <trkpt lat="44.15058" lon="5.03054">
        <ele>475</ele>
        <time>2016-05-18T11:10:57Z</time>
      </trkpt>
      <trkpt lat="44.15065" lon="5.03062">
        <ele>472</ele>
        <time>2016-05-18T11:11:12Z</time>
      </trkpt>
      <trkpt lat="44.15073" lon="5.03063">
        <ele>474</ele>
        <time>2016-05-18T11:11:46Z</time>
      </trkpt>
      <trkpt lat="44.15081" lon="5.03068">
        <ele>473</ele>
        <time>2016-05-18T11:12:18Z</time>
      </trkpt>
      <trkpt lat="44.15087" lon="5.03076">
        <ele>470</ele>
        <time>2016-05-18T11:12:38Z</time>
      </trkpt>
      <trkpt lat="44.15089" lon="5.03087">
        <ele>469</ele>
        <time>2016-05-18T11:13:26Z</time>
      </trkpt>
      <trkpt lat="44.15094" lon="5.03098">
        <ele>471</ele>
        <time>2016-05-18T11:13:34Z</time>
      </trkpt>
      <trkpt lat="44.1509" lon="5.03108">
        <ele>470</ele>
        <time>2016-05-18T11:13:41Z</time>
      </trkpt>
      <trkpt lat="44.15095" lon="5.03117">
        <ele>472</ele>
        <time>2016-05-18T11:13:48Z</time>
      </trkpt>
      <trkpt lat="44.15096" lon="5.03128">
        <ele>472</ele>
        <time>2016-05-18T11:13:58Z</time>
      </trkpt>
      <trkpt lat="44.15101" lon="5.03138">
        <ele>468</ele>
        <time>2016-05-18T11:14:21Z</time>
      </trkpt>
      <trkpt lat="44.15105" lon="5.03149">
        <ele>466</ele>
        <time>2016-05-18T11:14:35Z</time>
      </trkpt>
      <trkpt lat="44.15109" lon="5.03159">
        <ele>467</ele>
        <time>2016-05-18T11:14:46Z</time>
      </trkpt>
      <trkpt lat="44.15111" lon="5.03171">
        <ele>464</ele>
        <time>2016-05-18T11:14:58Z</time>
      </trkpt>
      <trkpt lat="44.15112" lon="5.03183">
        <ele>463</ele>
        <time>2016-05-18T11:15:08Z</time>
      </trkpt>
      <trkpt lat="44.15113" lon="5.03195">
        <ele>454</ele>
        <time>2016-05-18T11:15:26Z</time>
      </trkpt>
      <trkpt lat="44.15116" lon="5.03206">
        <ele>451</ele>
        <time>2016-05-18T11:15:37Z</time>
      </trkpt>
      <trkpt lat="44.15114" lon="5.03215">
        <ele>450</ele>
        <time>2016-05-18T11:15:44Z</time>
      </trkpt>
      <trkpt lat="44.15112" lon="5.03227">
        <ele>446</ele>
        <time>2016-05-18T11:15:55Z</time>
      </trkpt>
      <trkpt lat="44.15112" lon="5.03237">
        <ele>442</ele>
        <time>2016-05-18T11:16:09Z</time>
      </trkpt>
      <trkpt lat="44.15115" lon="5.03249">
        <ele>443</ele>
        <time>2016-05-18T11:16:15Z</time>
      </trkpt>
      <trkpt lat="44.15118" lon="5.03259">
        <ele>441</ele>
        <time>2016-05-18T11:16:22Z</time>
      </trkpt>
      <trkpt lat="44.15123" lon="5.03268">
        <ele>441</ele>
        <time>2016-05-18T11:16:32Z</time>
      </trkpt>
      <trkpt lat="44.15127" lon="5.03278">
        <ele>442</ele>
        <time>2016-05-18T11:16:41Z</time>
      </trkpt>
      <trkpt lat="44.15132" lon="5.03288">
        <ele>443</ele>
        <time>2016-05-18T11:16:50Z</time>
      </trkpt>
      <trkpt lat="44.15133" lon="5.033">
        <ele>443</ele>
        <time>2016-05-18T11:16:57Z</time>
      </trkpt>
      <trkpt lat="44.15135" lon="5.03311">
        <ele>440</ele>
        <time>2016-05-18T11:17:16Z</time>
      </trkpt>
      <trkpt lat="44.15139" lon="5.03321">
        <ele>436</ele>
        <time>2016-05-18T11:17:30Z</time>
      </trkpt>
      <trkpt lat="44.15146" lon="5.03329">
        <ele>437</ele>
        <time>2016-05-18T11:17:40Z</time>
      </trkpt>
      <trkpt lat="44.15147" lon="5.03341">
        <ele>436</ele>
        <time>2016-05-18T11:17:49Z</time>
      </trkpt>
      <trkpt lat="44.15149" lon="5.03353">
        <ele>430</ele>
        <time>2016-05-18T11:18:01Z</time>
      </trkpt>
      <trkpt lat="44.15153" lon="5.03363">
        <ele>428</ele>
        <time>2016-05-18T11:18:12Z</time>
      </trkpt>
      <trkpt lat="44.15157" lon="5.03374">
        <ele>425</ele>
        <time>2016-05-18T11:18:21Z</time>
      </trkpt>
      <trkpt lat="44.15156" lon="5.03384">
        <ele>426</ele>
        <time>2016-05-18T11:18:31Z</time>
      </trkpt>
      <trkpt lat="44.15155" lon="5.03395">
        <ele>423</ele>
        <time>2016-05-18T11:18:39Z</time>
      </trkpt>
      <trkpt lat="44.15156" lon="5.03406">
        <ele>423</ele>
        <time>2016-05-18T11:18:45Z</time>
      </trkpt>
      <trkpt lat="44.15159" lon="5.03417">
        <ele>419</ele>
        <time>2016-05-18T11:18:55Z</time>
      </trkpt>
      <trkpt lat="44.15159" lon="5.03429">
        <ele>420</ele>
        <time>2016-05-18T11:19:04Z</time>
      </trkpt>
      <trkpt lat="44.15157" lon="5.0344">
        <ele>418</ele>
        <time>2016-05-18T11:19:11Z</time>
      </trkpt>
      <trkpt lat="44.15161" lon="5.03451">
        <ele>416</ele>
        <time>2016-05-18T11:19:21Z</time>
      </trkpt>
      <trkpt lat="44.15164" lon="5.03463">
        <ele>415</ele>
        <time>2016-05-18T11:19:35Z</time>
      </trkpt>
      <trkpt lat="44.15171" lon="5.03468">
        <ele>408</ele>
        <time>2016-05-18T11:19:57Z</time>
      </trkpt>
      <trkpt lat="44.15177" lon="5.03476">
        <ele>406</ele>
        <time>2016-05-18T11:20:15Z</time>
      </trkpt>
      <trkpt lat="44.15184" lon="5.03474">
        <ele>409</ele>
        <time>2016-05-18T11:20:24Z</time>
      </trkpt>
      <trkpt lat="44.15184" lon="5.03462">
        <ele>405</ele>
        <time>2016-05-18T11:20:48Z</time>
      </trkpt>
      <trkpt lat="44.15191" lon="5.03454">
        <ele>402</ele>
        <time>2016-05-18T11:21:08Z</time>
      </trkpt>
      <trkpt lat="44.15193" lon="5.03445">
        <ele>400</ele>
        <time>2016-05-18T11:21:17Z</time>
      </trkpt>
      <trkpt lat="44.15195" lon="5.03434">
        <ele>399</ele>
        <time>2016-05-18T11:21:25Z</time>
      </trkpt>
      <trkpt lat="44.15197" lon="5.03422">
        <ele>398</ele>
        <time>2016-05-18T11:21:35Z</time>
      </trkpt>
      <trkpt lat="44.15198" lon="5.03411">
        <ele>397</ele>
        <time>2016-05-18T11:21:44Z</time>
      </trkpt>
      <trkpt lat="44.15198" lon="5.03399">
        <ele>397</ele>
        <time>2016-05-18T11:21:56Z</time>
      </trkpt>
      <trkpt lat="44.15199" lon="5.03387">
        <ele>398</ele>
        <time>2016-05-18T11:22:05Z</time>
      </trkpt>
      <trkpt lat="44.15198" lon="5.03375">
        <ele>400</ele>
        <time>2016-05-18T11:22:15Z</time>
      </trkpt>
      <trkpt lat="44.15197" lon="5.03363">
        <ele>400</ele>
        <time>2016-05-18T11:22:34Z</time>
      </trkpt>
      <trkpt lat="44.15199" lon="5.03374">
        <ele>392</ele>
        <time>2016-05-18T11:25:21Z</time>
      </trkpt>
      <trkpt lat="44.15208" lon="5.03373">
        <ele>396</ele>
        <time>2016-05-18T11:25:35Z</time>
      </trkpt>
      <trkpt lat="44.15216" lon="5.0337">
        <ele>394</ele>
        <time>2016-05-18T11:26:08Z</time>
      </trkpt>
      <trkpt lat="44.15216" lon="5.03357">
        <ele>390</ele>
        <time>2016-05-18T11:26:51Z</time>
      </trkpt>
      <trkpt lat="44.1522" lon="5.03348">
        <ele>392</ele>
        <time>2016-05-18T11:27:01Z</time>
      </trkpt>
      <trkpt lat="44.15225" lon="5.03338">
        <ele>391</ele>
        <time>2016-05-18T11:27:14Z</time>
      </trkpt>
      <trkpt lat="44.1523" lon="5.03328">
        <ele>391</ele>
        <time>2016-05-18T11:28:18Z</time>
      </trkpt>
      <trkpt lat="44.15235" lon="5.0332">
        <ele>389</ele>
        <time>2016-05-18T11:28:33Z</time>
      </trkpt>
      <trkpt lat="44.15239" lon="5.03309">
        <ele>398</ele>
        <time>2016-05-18T11:28:57Z</time>
      </trkpt>
      <trkpt lat="44.15247" lon="5.03306">
        <ele>404</ele>
        <time>2016-05-18T11:29:40Z</time>
      </trkpt>
      <trkpt lat="44.15255" lon="5.03305">
        <ele>403</ele>
        <time>2016-05-18T11:29:59Z</time>
      </trkpt>
      <trkpt lat="44.15263" lon="5.03303">
        <ele>404</ele>
        <time>2016-05-18T11:30:11Z</time>
      </trkpt>
      <trkpt lat="44.15268" lon="5.03292">
        <ele>407</ele>
        <time>2016-05-18T11:30:26Z</time>
      </trkpt>
      <trkpt lat="44.15274" lon="5.03286">
        <ele>407</ele>
        <time>2016-05-18T11:30:53Z</time>
      </trkpt>
      <trkpt lat="44.15283" lon="5.03283">
        <ele>415</ele>
        <time>2016-05-18T11:31:11Z</time>
      </trkpt>
      <trkpt lat="44.1529" lon="5.03277">
        <ele>417</ele>
        <time>2016-05-18T11:31:37Z</time>
      </trkpt>
      <trkpt lat="44.15296" lon="5.03269">
        <ele>419</ele>
        <time>2016-05-18T11:31:44Z</time>
      </trkpt>
      <trkpt lat="44.15301" lon="5.03261">
        <ele>419</ele>
        <time>2016-05-18T11:32:14Z</time>
      </trkpt>
      <trkpt lat="44.15307" lon="5.03253">
        <ele>421</ele>
        <time>2016-05-18T11:32:31Z</time>
      </trkpt>
      <trkpt lat="44.15314" lon="5.03246">
        <ele>423</ele>
        <time>2016-05-18T11:32:42Z</time>
      </trkpt>
      <trkpt lat="44.15316" lon="5.03235">
        <ele>424</ele>
        <time>2016-05-18T11:32:56Z</time>
      </trkpt>
      <trkpt lat="44.1532" lon="5.03224">
        <ele>426</ele>
        <time>2016-05-18T11:33:05Z</time>
      </trkpt>
      <trkpt lat="44.15317" lon="5.03214">
        <ele>426</ele>
        <time>2016-05-18T11:33:14Z</time>
      </trkpt>
      <trkpt lat="44.15323" lon="5.03205">
        <ele>426</ele>
        <time>2016-05-18T11:33:35Z</time>
      </trkpt>
      <trkpt lat="44.15326" lon="5.03194">
        <ele>426</ele>
        <time>2016-05-18T11:33:44Z</time>
      </trkpt>
      <trkpt lat="44.15332" lon="5.03185">
        <ele>429</ele>
        <time>2016-05-18T11:33:54Z</time>
      </trkpt>
      <trkpt lat="44.15332" lon="5.03173">
        <ele>428</ele>
        <time>2016-05-18T11:34:27Z</time>
      </trkpt>
      <trkpt lat="44.15333" lon="5.03162">
        <ele>423</ele>
        <time>2016-05-18T11:34:46Z</time>
      </trkpt>
      <trkpt lat="44.15333" lon="5.0315">
        <ele>422</ele>
        <time>2016-05-18T11:35:00Z</time>
      </trkpt>
      <trkpt lat="44.15327" lon="5.03145">
        <ele>425</ele>
        <time>2016-05-18T11:35:11Z</time>
      </trkpt>
      <trkpt lat="44.15318" lon="5.03146">
        <ele>426</ele>
        <time>2016-05-18T11:35:20Z</time>
      </trkpt>
      <trkpt lat="44.15311" lon="5.03153">
        <ele>428</ele>
        <time>2016-05-18T11:35:29Z</time>
      </trkpt>
      <trkpt lat="44.15305" lon="5.0316">
        <ele>428</ele>
        <time>2016-05-18T11:35:33Z</time>
      </trkpt>
      <trkpt lat="44.15299" lon="5.03166">
        <ele>430</ele>
        <time>2016-05-18T11:35:39Z</time>
      </trkpt>
      <trkpt lat="44.15294" lon="5.03174">
        <ele>431</ele>
        <time>2016-05-18T11:35:48Z</time>
      </trkpt>
      <trkpt lat="44.15286" lon="5.03177">
        <ele>428</ele>
        <time>2016-05-18T11:35:56Z</time>
      </trkpt>
      <trkpt lat="44.15279" lon="5.03183">
        <ele>430</ele>
        <time>2016-05-18T11:36:05Z</time>
      </trkpt>
      <trkpt lat="44.15271" lon="5.03178">
        <ele>427</ele>
        <time>2016-05-18T11:36:16Z</time>
      </trkpt>
      <trkpt lat="44.15264" lon="5.03185">
        <ele>427</ele>
        <time>2016-05-18T11:36:27Z</time>
      </trkpt>
      <trkpt lat="44.1526" lon="5.03175">
        <ele>428</ele>
        <time>2016-05-18T11:36:35Z</time>
      </trkpt>
      <trkpt lat="44.15253" lon="5.03164">
        <ele>432</ele>
        <time>2016-05-18T11:36:40Z</time>
      </trkpt>
      <trkpt lat="44.1525" lon="5.03154">
        <ele>434</ele>
        <time>2016-05-18T11:36:46Z</time>
      </trkpt>
      <trkpt lat="44.15245" lon="5.03144">
        <ele>433</ele>
        <time>2016-05-18T11:36:55Z</time>
      </trkpt>
      <trkpt lat="44.15243" lon="5.03133">
        <ele>433</ele>
        <time>2016-05-18T11:40:44Z</time>
      </trkpt>
      <trkpt lat="44.15241" lon="5.03121">
        <ele>432</ele>
        <time>2016-05-18T11:41:04Z</time>
      </trkpt>
      <trkpt lat="44.15241" lon="5.03109">
        <ele>432</ele>
        <time>2016-05-18T11:41:13Z</time>
      </trkpt>
      <trkpt lat="44.15242" lon="5.03098">
        <ele>432</ele>
        <time>2016-05-18T11:41:21Z</time>
      </trkpt>
      <trkpt lat="44.15244" lon="5.03086">
        <ele>433</ele>
        <time>2016-05-18T11:41:28Z</time>
      </trkpt>
      <trkpt lat="44.15247" lon="5.03074">
        <ele>433</ele>
        <time>2016-05-18T11:41:34Z</time>
      </trkpt>
      <trkpt lat="44.15242" lon="5.03066">
        <ele>436</ele>
        <time>2016-05-18T11:41:41Z</time>
      </trkpt>
      <trkpt lat="44.15237" lon="5.03055">
        <ele>440</ele>
        <time>2016-05-18T11:41:47Z</time>
      </trkpt>
      <trkpt lat="44.15236" lon="5.03045">
        <ele>437</ele>
        <time>2016-05-18T11:41:59Z</time>
      </trkpt>
      <trkpt lat="44.15236" lon="5.03034">
        <ele>436</ele>
        <time>2016-05-18T11:42:07Z</time>
      </trkpt>
      <trkpt lat="44.15233" lon="5.03024">
        <ele>439</ele>
        <time>2016-05-18T11:42:12Z</time>
      </trkpt>
      <trkpt lat="44.15233" lon="5.03012">
        <ele>438</ele>
        <time>2016-05-18T11:42:20Z</time>
      </trkpt>
      <trkpt lat="44.15236" lon="5.03">
        <ele>438</ele>
        <time>2016-05-18T11:42:26Z</time>
      </trkpt>
      <trkpt lat="44.15234" lon="5.02988">
        <ele>439</ele>
        <time>2016-05-18T11:42:34Z</time>
      </trkpt>
      <trkpt lat="44.15233" lon="5.02977">
        <ele>440</ele>
        <time>2016-05-18T11:42:45Z</time>
      </trkpt>
      <trkpt lat="44.15232" lon="5.02963">
        <ele>441</ele>
        <time>2016-05-18T11:42:50Z</time>
      </trkpt>
      <trkpt lat="44.15228" lon="5.02952">
        <ele>439</ele>
        <time>2016-05-18T11:43:00Z</time>
      </trkpt>
      <trkpt lat="44.15224" lon="5.02943">
        <ele>438</ele>
        <time>2016-05-18T11:43:07Z</time>
      </trkpt>
      <trkpt lat="44.15218" lon="5.02934">
        <ele>442</ele>
        <time>2016-05-18T11:43:13Z</time>
      </trkpt>
      <trkpt lat="44.15217" lon="5.02922">
        <ele>438</ele>
        <time>2016-05-18T11:43:26Z</time>
      </trkpt>
      <trkpt lat="44.15214" lon="5.02911">
        <ele>439</ele>
        <time>2016-05-18T11:43:35Z</time>
      </trkpt>
      <trkpt lat="44.15211" lon="5.02899">
        <ele>438</ele>
        <time>2016-05-18T11:43:48Z</time>
      </trkpt>
      <trkpt lat="44.15211" lon="5.02887">
        <ele>442</ele>
        <time>2016-05-18T11:43:55Z</time>
      </trkpt>
      <trkpt lat="44.1521" lon="5.02875">
        <ele>442</ele>
        <time>2016-05-18T11:44:05Z</time>
      </trkpt>
      <trkpt lat="44.15207" lon="5.02866">
        <ele>438</ele>
        <time>2016-05-18T11:44:19Z</time>
      </trkpt>
      <trkpt lat="44.15207" lon="5.02854">
        <ele>439</ele>
        <time>2016-05-18T11:44:26Z</time>
      </trkpt>
      <trkpt lat="44.15209" lon="5.02843">
        <ele>444</ele>
        <time>2016-05-18T11:44:33Z</time>
      </trkpt>
      <trkpt lat="44.15211" lon="5.02831">
        <ele>444</ele>
        <time>2016-05-18T11:44:40Z</time>
      </trkpt>
      <trkpt lat="44.15213" lon="5.0282">
        <ele>445</ele>
        <time>2016-05-18T11:44:46Z</time>
      </trkpt>
      <trkpt lat="44.15214" lon="5.02808">
        <ele>446</ele>
        <time>2016-05-18T11:44:52Z</time>
      </trkpt>
      <trkpt lat="44.15213" lon="5.02797">
        <ele>446</ele>
        <time>2016-05-18T11:45:04Z</time>
      </trkpt>
      <trkpt lat="44.15215" lon="5.02785">
        <ele>448</ele>
        <time>2016-05-18T11:45:12Z</time>
      </trkpt>
      <trkpt lat="44.15213" lon="5.02774">
        <ele>449</ele>
        <time>2016-05-18T11:45:20Z</time>
      </trkpt>
      <trkpt lat="44.15216" lon="5.02764">
        <ele>447</ele>
        <time>2016-05-18T11:45:29Z</time>
      </trkpt>
      <trkpt lat="44.15217" lon="5.02752">
        <ele>445</ele>
        <time>2016-05-18T11:45:40Z</time>
      </trkpt>
      <trkpt lat="44.15214" lon="5.02742">
        <ele>449</ele>
        <time>2016-05-18T11:45:49Z</time>
      </trkpt>
      <trkpt lat="44.15206" lon="5.02739">
        <ele>449</ele>
        <time>2016-05-18T11:46:00Z</time>
      </trkpt>
      <trkpt lat="44.15217" lon="5.02727">
        <ele>450</ele>
        <time>2016-05-18T11:46:05Z</time>
      </trkpt>
      <trkpt lat="44.1522" lon="5.02716">
        <ele>450</ele>
        <time>2016-05-18T11:46:16Z</time>
      </trkpt>
      <trkpt lat="44.1522" lon="5.02705">
        <ele>451</ele>
        <time>2016-05-18T11:46:26Z</time>
      </trkpt>
      <trkpt lat="44.1522" lon="5.02693">
        <ele>453</ele>
        <time>2016-05-18T11:46:34Z</time>
      </trkpt>
      <trkpt lat="44.1522" lon="5.02681">
        <ele>452</ele>
        <time>2016-05-18T11:46:43Z</time>
      </trkpt>
      <trkpt lat="44.15222" lon="5.02669">
        <ele>453</ele>
        <time>2016-05-18T11:46:51Z</time>
      </trkpt>
      <trkpt lat="44.1522" lon="5.02657">
        <ele>454</ele>
        <time>2016-05-18T11:47:04Z</time>
      </trkpt>
      <trkpt lat="44.15218" lon="5.02647">
        <ele>454</ele>
        <time>2016-05-18T11:47:12Z</time>
      </trkpt>
      <trkpt lat="44.1522" lon="5.02636">
        <ele>456</ele>
        <time>2016-05-18T11:47:19Z</time>
      </trkpt>
      <trkpt lat="44.15221" lon="5.02624">
        <ele>456</ele>
        <time>2016-05-18T11:47:34Z</time>
      </trkpt>
      <trkpt lat="44.15221" lon="5.02614">
        <ele>457</ele>
        <time>2016-05-18T11:47:40Z</time>
      </trkpt>
      <trkpt lat="44.15221" lon="5.02602">
        <ele>459</ele>
        <time>2016-05-18T11:47:50Z</time>
      </trkpt>
      <trkpt lat="44.15224" lon="5.02591">
        <ele>464</ele>
        <time>2016-05-18T11:48:03Z</time>
      </trkpt>
      <trkpt lat="44.15227" lon="5.02581">
        <ele>463</ele>
        <time>2016-05-18T11:48:11Z</time>
      </trkpt>
      <trkpt lat="44.15228" lon="5.02569">
        <ele>462</ele>
        <time>2016-05-18T11:48:33Z</time>
      </trkpt>
      <trkpt lat="44.1523" lon="5.02559">
        <ele>463</ele>
        <time>2016-05-18T11:48:48Z</time>
      </trkpt>
      <trkpt lat="44.15228" lon="5.02548">
        <ele>462</ele>
        <time>2016-05-18T11:48:54Z</time>
      </trkpt>
      <trkpt lat="44.1523" lon="5.02537">
        <ele>465</ele>
        <time>2016-05-18T11:49:05Z</time>
      </trkpt>
      <trkpt lat="44.15238" lon="5.02538">
        <ele>474</ele>
        <time>2016-05-18T11:51:36Z</time>
      </trkpt>
      <trkpt lat="44.15246" lon="5.02542">
        <ele>473</ele>
        <time>2016-05-18T11:51:45Z</time>
      </trkpt>
      <trkpt lat="44.15249" lon="5.02553">
        <ele>474</ele>
        <time>2016-05-18T11:51:55Z</time>
      </trkpt>
      <trkpt lat="44.15253" lon="5.02564">
        <ele>474</ele>
        <time>2016-05-18T11:52:07Z</time>
      </trkpt>
      <trkpt lat="44.15254" lon="5.02576">
        <ele>474</ele>
        <time>2016-05-18T11:52:14Z</time>
      </trkpt>
      <trkpt lat="44.1526" lon="5.02567">
        <ele>472</ele>
        <time>2016-05-18T11:52:41Z</time>
      </trkpt>
      <trkpt lat="44.15256" lon="5.02557">
        <ele>474</ele>
        <time>2016-05-18T11:52:49Z</time>
      </trkpt>
      <trkpt lat="44.15259" lon="5.02546">
        <ele>472</ele>
        <time>2016-05-18T11:53:17Z</time>
      </trkpt>
      <trkpt lat="44.15262" lon="5.02534">
        <ele>468</ele>
        <time>2016-05-18T11:53:23Z</time>
      </trkpt>
      <trkpt lat="44.15261" lon="5.02523">
        <ele>469</ele>
        <time>2016-05-18T11:53:30Z</time>
      </trkpt>
      <trkpt lat="44.15254" lon="5.02523">
        <ele>470</ele>
        <time>2016-05-18T11:53:38Z</time>
      </trkpt>
      <trkpt lat="44.15249" lon="5.02515">
        <ele>474</ele>
        <time>2016-05-18T11:53:49Z</time>
      </trkpt>
      <trkpt lat="44.15252" lon="5.02503">
        <ele>480</ele>
        <time>2016-05-18T11:53:55Z</time>
      </trkpt>
      <trkpt lat="44.1525" lon="5.02492">
        <ele>485</ele>
        <time>2016-05-18T11:54:03Z</time>
      </trkpt>
      <trkpt lat="44.15244" lon="5.02483">
        <ele>484</ele>
        <time>2016-05-18T11:54:13Z</time>
      </trkpt>
      <trkpt lat="44.15246" lon="5.02474">
        <ele>484</ele>
        <time>2016-05-18T11:54:19Z</time>
      </trkpt>
      <trkpt lat="44.1525" lon="5.02464">
        <ele>482</ele>
        <time>2016-05-18T11:54:32Z</time>
      </trkpt>
      <trkpt lat="44.15251" lon="5.02452">
        <ele>486</ele>
        <time>2016-05-18T11:54:39Z</time>
      </trkpt>
      <trkpt lat="44.15248" lon="5.02441">
        <ele>484</ele>
        <time>2016-05-18T11:54:52Z</time>
      </trkpt>
      <trkpt lat="44.15247" lon="5.02429">
        <ele>484</ele>
        <time>2016-05-18T11:55:01Z</time>
      </trkpt>
      <trkpt lat="44.15249" lon="5.02419">
        <ele>485</ele>
        <time>2016-05-18T11:55:10Z</time>
      </trkpt>
      <trkpt lat="44.15251" lon="5.02409">
        <ele>486</ele>
        <time>2016-05-18T11:55:16Z</time>
      </trkpt>
      <trkpt lat="44.15254" lon="5.02401">
        <ele>483</ele>
        <time>2016-05-18T11:55:25Z</time>
      </trkpt>
      <trkpt lat="44.15253" lon="5.0239">
        <ele>483</ele>
        <time>2016-05-18T11:55:34Z</time>
      </trkpt>
      <trkpt lat="44.15252" lon="5.02378">
        <ele>484</ele>
        <time>2016-05-18T11:55:43Z</time>
      </trkpt>
      <trkpt lat="44.15252" lon="5.02367">
        <ele>486</ele>
        <time>2016-05-18T11:55:52Z</time>
      </trkpt>
      <trkpt lat="44.15252" lon="5.02354">
        <ele>486</ele>
        <time>2016-05-18T11:56:03Z</time>
      </trkpt>
      <trkpt lat="44.15254" lon="5.02345">
        <ele>488</ele>
        <time>2016-05-18T11:56:08Z</time>
      </trkpt>
      <trkpt lat="44.15252" lon="5.02333">
        <ele>487</ele>
        <time>2016-05-18T11:56:22Z</time>
      </trkpt>
      <trkpt lat="44.15251" lon="5.02321">
        <ele>484</ele>
        <time>2016-05-18T11:56:33Z</time>
      </trkpt>
      <trkpt lat="44.15254" lon="5.02309">
        <ele>484</ele>
        <time>2016-05-18T11:56:43Z</time>
      </trkpt>
      <trkpt lat="44.15256" lon="5.02297">
        <ele>486</ele>
        <time>2016-05-18T11:56:49Z</time>
      </trkpt>
      <trkpt lat="44.15253" lon="5.02286">
        <ele>490</ele>
        <time>2016-05-18T11:57:01Z</time>
      </trkpt>
      <trkpt lat="44.15252" lon="5.02274">
        <ele>489</ele>
        <time>2016-05-18T11:57:11Z</time>
      </trkpt>
      <trkpt lat="44.15251" lon="5.02263">
        <ele>490</ele>
        <time>2016-05-18T11:57:18Z</time>
      </trkpt>
      <trkpt lat="44.15253" lon="5.02254">
        <ele>491</ele>
        <time>2016-05-18T11:57:23Z</time>
      </trkpt>
      <trkpt lat="44.15257" lon="5.02243">
        <ele>493</ele>
        <time>2016-05-18T11:57:34Z</time>
      </trkpt>
      <trkpt lat="44.15257" lon="5.02232">
        <ele>494</ele>
        <time>2016-05-18T11:57:43Z</time>
      </trkpt>
      <trkpt lat="44.15258" lon="5.0222">
        <ele>492</ele>
        <time>2016-05-18T11:58:00Z</time>
      </trkpt>
      <trkpt lat="44.1525" lon="5.02217">
        <ele>499</ele>
        <time>2016-05-18T11:58:06Z</time>
      </trkpt>
      <trkpt lat="44.15242" lon="5.02216">
        <ele>500</ele>
        <time>2016-05-18T11:58:35Z</time>
      </trkpt>
      <trkpt lat="44.15232" lon="5.02219">
        <ele>501</ele>
        <time>2016-05-18T11:58:40Z</time>
      </trkpt>
      <trkpt lat="44.15228" lon="5.0221">
        <ele>501</ele>
        <time>2016-05-18T12:00:42Z</time>
      </trkpt>
      <trkpt lat="44.15228" lon="5.02198">
        <ele>495</ele>
        <time>2016-05-18T12:03:18Z</time>
      </trkpt>
      <trkpt lat="44.15222" lon="5.0219">
        <ele>487</ele>
        <time>2016-05-18T12:03:55Z</time>
      </trkpt>
      <trkpt lat="44.15223" lon="5.02179">
        <ele>468</ele>
        <time>2016-05-18T12:04:11Z</time>
      </trkpt>
      <trkpt lat="44.15225" lon="5.02167">
        <ele>491</ele>
        <time>2016-05-18T12:04:25Z</time>
      </trkpt>
      <trkpt lat="44.15228" lon="5.02156">
        <ele>489</ele>
        <time>2016-05-18T12:04:35Z</time>
      </trkpt>
      <trkpt lat="44.15229" lon="5.02146">
        <ele>499</ele>
        <time>2016-05-18T12:04:46Z</time>
      </trkpt>
      <trkpt lat="44.15228" lon="5.02134">
        <ele>492</ele>
        <time>2016-05-18T12:05:01Z</time>
      </trkpt>
      <trkpt lat="44.15227" lon="5.02124">
        <ele>499</ele>
        <time>2016-05-18T12:05:33Z</time>
      </trkpt>
      <trkpt lat="44.15223" lon="5.02114">
        <ele>500</ele>
        <time>2016-05-18T12:05:44Z</time>
      </trkpt>
      <trkpt lat="44.15221" lon="5.02104">
        <ele>486</ele>
        <time>2016-05-18T12:06:05Z</time>
      </trkpt>
      <trkpt lat="44.15221" lon="5.02092">
        <ele>495</ele>
        <time>2016-05-18T12:06:13Z</time>
      </trkpt>
      <trkpt lat="44.15222" lon="5.02081">
        <ele>496</ele>
        <time>2016-05-18T12:06:19Z</time>
      </trkpt>
      <trkpt lat="44.15221" lon="5.0207">
        <ele>497</ele>
        <time>2016-05-18T12:06:39Z</time>
      </trkpt>
      <trkpt lat="44.15224" lon="5.02058">
        <ele>498</ele>
        <time>2016-05-18T12:06:44Z</time>
      </trkpt>
      <trkpt lat="44.1522" lon="5.02049">
        <ele>468</ele>
        <time>2016-05-18T12:06:55Z</time>
      </trkpt>
      <trkpt lat="44.15219" lon="5.02037">
        <ele>467</ele>
        <time>2016-05-18T12:06:59Z</time>
      </trkpt>
      <trkpt lat="44.15221" lon="5.02025">
        <ele>485</ele>
        <time>2016-05-18T12:07:12Z</time>
      </trkpt>
      <trkpt lat="44.15221" lon="5.02013">
        <ele>489</ele>
        <time>2016-05-18T12:07:24Z</time>
      </trkpt>
      <trkpt lat="44.15225" lon="5.02004">
        <ele>490</ele>
        <time>2016-05-18T12:07:33Z</time>
      </trkpt>
      <trkpt lat="44.15232" lon="5.01998">
        <ele>491</ele>
        <time>2016-05-18T12:07:41Z</time>
      </trkpt>
      <trkpt lat="44.15239" lon="5.01995">
        <ele>487</ele>
        <time>2016-05-18T12:07:49Z</time>
      </trkpt>
      <trkpt lat="44.15247" lon="5.01995">
        <ele>491</ele>
        <time>2016-05-18T12:07:53Z</time>
      </trkpt>
      <trkpt lat="44.15255" lon="5.01998">
        <ele>488</ele>
        <time>2016-05-18T12:08:04Z</time>
      </trkpt>
      <trkpt lat="44.15263" lon="5.01996">
        <ele>485</ele>
        <time>2016-05-18T12:08:16Z</time>
      </trkpt>
      <trkpt lat="44.1527" lon="5.0199">
        <ele>484</ele>
        <time>2016-05-18T12:08:26Z</time>
      </trkpt>
      <trkpt lat="44.15277" lon="5.01983">
        <ele>484</ele>
        <time>2016-05-18T12:08:37Z</time>
      </trkpt>
      <trkpt lat="44.15282" lon="5.01973">
        <ele>485</ele>
        <time>2016-05-18T12:08:52Z</time>
      </trkpt>
      <trkpt lat="44.15287" lon="5.01963">
        <ele>486</ele>
        <time>2016-05-18T12:09:00Z</time>
      </trkpt>
      <trkpt lat="44.15292" lon="5.01953">
        <ele>487</ele>
        <time>2016-05-18T12:09:08Z</time>
      </trkpt>
      <trkpt lat="44.15295" lon="5.01943">
        <ele>488</ele>
        <time>2016-05-18T12:09:15Z</time>
      </trkpt>
      <trkpt lat="44.15298" lon="5.01931">
        <ele>492</ele>
        <time>2016-05-18T12:09:27Z</time>
      </trkpt>
      <trkpt lat="44.15301" lon="5.01921">
        <ele>489</ele>
        <time>2016-05-18T12:09:37Z</time>
      </trkpt>
      <trkpt lat="44.15303" lon="5.01909">
        <ele>491</ele>
        <time>2016-05-18T12:09:47Z</time>
      </trkpt>
      <trkpt lat="44.15305" lon="5.01897">
        <ele>488</ele>
        <time>2016-05-18T12:10:08Z</time>
      </trkpt>
      <trkpt lat="44.15305" lon="5.01884">
        <ele>487</ele>
        <time>2016-05-18T12:10:12Z</time>
      </trkpt>
      <trkpt lat="44.15307" lon="5.01872">
        <ele>490</ele>
        <time>2016-05-18T12:10:17Z</time>
      </trkpt>
      <trkpt lat="44.15306" lon="5.0186">
        <ele>491</ele>
        <time>2016-05-18T12:10:22Z</time>
      </trkpt>
      <trkpt lat="44.15303" lon="5.0185">
        <ele>494</ele>
        <time>2016-05-18T12:10:29Z</time>
      </trkpt>
      <trkpt lat="44.15305" lon="5.0184">
        <ele>495</ele>
        <time>2016-05-18T12:10:34Z</time>
      </trkpt>
      <trkpt lat="44.15305" lon="5.0183">
        <ele>497</ele>
        <time>2016-05-18T12:10:41Z</time>
      </trkpt>
      <trkpt lat="44.15299" lon="5.0182">
        <ele>495</ele>
        <time>2016-05-18T12:10:51Z</time>
      </trkpt>
      <trkpt lat="44.15298" lon="5.01811">
        <ele>494</ele>
        <time>2016-05-18T12:10:56Z</time>
      </trkpt>
      <trkpt lat="44.15295" lon="5.018">
        <ele>494</ele>
        <time>2016-05-18T12:11:03Z</time>
      </trkpt>
      <trkpt lat="44.15293" lon="5.01789">
        <ele>494</ele>
        <time>2016-05-18T12:11:12Z</time>
      </trkpt>
      <trkpt lat="44.15292" lon="5.01777">
        <ele>497</ele>
        <time>2016-05-18T12:11:21Z</time>
      </trkpt>
      <trkpt lat="44.15288" lon="5.01767">
        <ele>498</ele>
        <time>2016-05-18T12:11:26Z</time>
      </trkpt>
      <trkpt lat="44.15286" lon="5.01756">
        <ele>499</ele>
        <time>2016-05-18T12:11:32Z</time>
      </trkpt>
      <trkpt lat="44.15287" lon="5.01745">
        <ele>497</ele>
        <time>2016-05-18T12:11:43Z</time>
      </trkpt>
      <trkpt lat="44.15286" lon="5.01733">
        <ele>497</ele>
        <time>2016-05-18T12:11:52Z</time>
      </trkpt>
      <trkpt lat="44.15287" lon="5.01721">
        <ele>495</ele>
        <time>2016-05-18T12:12:01Z</time>
      </trkpt>
      <trkpt lat="44.15285" lon="5.0171">
        <ele>494</ele>
        <time>2016-05-18T12:12:08Z</time>
      </trkpt>
      <trkpt lat="44.15279" lon="5.01702">
        <ele>494</ele>
        <time>2016-05-18T12:12:16Z</time>
      </trkpt>
      <trkpt lat="44.15273" lon="5.01694">
        <ele>497</ele>
        <time>2016-05-18T12:12:22Z</time>
      </trkpt>
      <trkpt lat="44.15272" lon="5.01683">
        <ele>499</ele>
        <time>2016-05-18T12:12:29Z</time>
      </trkpt>
      <trkpt lat="44.15267" lon="5.01674">
        <ele>500</ele>
        <time>2016-05-18T12:12:37Z</time>
      </trkpt>
      <trkpt lat="44.15272" lon="5.01663">
        <ele>493</ele>
        <time>2016-05-18T12:12:42Z</time>
      </trkpt>
      <trkpt lat="44.15268" lon="5.01656">
        <ele>497</ele>
        <time>2016-05-18T12:12:50Z</time>
      </trkpt>
      <trkpt lat="44.15264" lon="5.01646">
        <ele>496</ele>
        <time>2016-05-18T12:12:58Z</time>
      </trkpt>
      <trkpt lat="44.15259" lon="5.01637">
        <ele>495</ele>
        <time>2016-05-18T12:13:07Z</time>
      </trkpt>
      <trkpt lat="44.15255" lon="5.01626">
        <ele>496</ele>
        <time>2016-05-18T12:13:15Z</time>
      </trkpt>
      <trkpt lat="44.15256" lon="5.01615">
        <ele>488</ele>
        <time>2016-05-18T12:13:54Z</time>
      </trkpt>
      <trkpt lat="44.15251" lon="5.01605">
        <ele>484</ele>
        <time>2016-05-18T12:13:58Z</time>
      </trkpt>
      <trkpt lat="44.15252" lon="5.01593">
        <ele>488</ele>
        <time>2016-05-18T12:14:03Z</time>
      </trkpt>
      <trkpt lat="44.15249" lon="5.01582">
        <ele>487</ele>
        <time>2016-05-18T12:14:20Z</time>
      </trkpt>
      <trkpt lat="44.15247" lon="5.01571">
        <ele>486</ele>
        <time>2016-05-18T12:14:31Z</time>
      </trkpt>
      <trkpt lat="44.15244" lon="5.0156">
        <ele>486</ele>
        <time>2016-05-18T12:14:36Z</time>
      </trkpt>
      <trkpt lat="44.15243" lon="5.01548">
        <ele>486</ele>
        <time>2016-05-18T12:14:40Z</time>
      </trkpt>
      <trkpt lat="44.15243" lon="5.01536">
        <ele>484</ele>
        <time>2016-05-18T12:14:47Z</time>
      </trkpt>
      <trkpt lat="44.15239" lon="5.01527">
        <ele>485</ele>
        <time>2016-05-18T12:14:54Z</time>
      </trkpt>
      <trkpt lat="44.15239" lon="5.01515">
        <ele>485</ele>
        <time>2016-05-18T12:14:59Z</time>
      </trkpt>
      <trkpt lat="44.15237" lon="5.01504">
        <ele>483</ele>
        <time>2016-05-18T12:15:09Z</time>
      </trkpt>
      <trkpt lat="44.15233" lon="5.01493">
        <ele>483</ele>
        <time>2016-05-18T12:15:18Z</time>
      </trkpt>
      <trkpt lat="44.15229" lon="5.01483">
        <ele>483</ele>
        <time>2016-05-18T12:15:25Z</time>
      </trkpt>
      <trkpt lat="44.15224" lon="5.01474">
        <ele>487</ele>
        <time>2016-05-18T12:15:31Z</time>
      </trkpt>
      <trkpt lat="44.15223" lon="5.01461">
        <ele>487</ele>
        <time>2016-05-18T12:15:37Z</time>
      </trkpt>
      <trkpt lat="44.15217" lon="5.01454">
        <ele>490</ele>
        <time>2016-05-18T12:15:42Z</time>
      </trkpt>
      <trkpt lat="44.15214" lon="5.01442">
        <ele>489</ele>
        <time>2016-05-18T12:15:51Z</time>
      </trkpt>
      <trkpt lat="44.15214" lon="5.0143">
        <ele>487</ele>
        <time>2016-05-18T12:15:57Z</time>
      </trkpt>
      <trkpt lat="44.15211" lon="5.01418">
        <ele>483</ele>
        <time>2016-05-18T12:16:03Z</time>
      </trkpt>
      <trkpt lat="44.15211" lon="5.01406">
        <ele>484</ele>
        <time>2016-05-18T12:16:17Z</time>
      </trkpt>
      <trkpt lat="44.1521" lon="5.01394">
        <ele>484</ele>
        <time>2016-05-18T12:16:22Z</time>
      </trkpt>
      <trkpt lat="44.15209" lon="5.01382">
        <ele>486</ele>
        <time>2016-05-18T12:16:27Z</time>
      </trkpt>
      <trkpt lat="44.15208" lon="5.0137">
        <ele>487</ele>
        <time>2016-05-18T12:16:34Z</time>
      </trkpt>
      <trkpt lat="44.15208" lon="5.01358">
        <ele>484</ele>
        <time>2016-05-18T12:16:50Z</time>
      </trkpt>
      <trkpt lat="44.15208" lon="5.01346">
        <ele>483</ele>
        <time>2016-05-18T12:17:03Z</time>
      </trkpt>
      <trkpt lat="44.15208" lon="5.01335">
        <ele>482</ele>
        <time>2016-05-18T12:17:14Z</time>
      </trkpt>
      <trkpt lat="44.15207" lon="5.01312">
        <ele>486</ele>
        <time>2016-05-18T12:17:18Z</time>
      </trkpt>
      <trkpt lat="44.1521" lon="5.01301">
        <ele>483</ele>
        <time>2016-05-18T12:17:31Z</time>
      </trkpt>
      <trkpt lat="44.15213" lon="5.01289">
        <ele>481</ele>
        <time>2016-05-18T12:17:50Z</time>
      </trkpt>
      <trkpt lat="44.15214" lon="5.01277">
        <ele>481</ele>
        <time>2016-05-18T12:17:56Z</time>
      </trkpt>
      <trkpt lat="44.15214" lon="5.01265">
        <ele>478</ele>
        <time>2016-05-18T12:18:05Z</time>
      </trkpt>
      <trkpt lat="44.15214" lon="5.01255">
        <ele>477</ele>
        <time>2016-05-18T12:18:12Z</time>
      </trkpt>
      <trkpt lat="44.15219" lon="5.01244">
        <ele>478</ele>
        <time>2016-05-18T12:18:17Z</time>
      </trkpt>
      <trkpt lat="44.15224" lon="5.01236">
        <ele>478</ele>
        <time>2016-05-18T12:18:22Z</time>
      </trkpt>
      <trkpt lat="44.15227" lon="5.01225">
        <ele>469</ele>
        <time>2016-05-18T12:18:34Z</time>
      </trkpt>
      <trkpt lat="44.15232" lon="5.01218">
        <ele>469</ele>
        <time>2016-05-18T12:18:42Z</time>
      </trkpt>
      <trkpt lat="44.15237" lon="5.01207">
        <ele>471</ele>
        <time>2016-05-18T12:18:50Z</time>
      </trkpt>
      <trkpt lat="44.15243" lon="5.01201">
        <ele>459</ele>
        <time>2016-05-18T12:19:03Z</time>
      </trkpt>
      <trkpt lat="44.15249" lon="5.01194">
        <ele>463</ele>
        <time>2016-05-18T12:19:11Z</time>
      </trkpt>
      <trkpt lat="44.15255" lon="5.01186">
        <ele>467</ele>
        <time>2016-05-18T12:19:18Z</time>
      </trkpt>
      <trkpt lat="44.1526" lon="5.01178">
        <ele>464</ele>
        <time>2016-05-18T12:19:32Z</time>
      </trkpt>
      <trkpt lat="44.15266" lon="5.01168">
        <ele>462</ele>
        <time>2016-05-18T12:19:39Z</time>
      </trkpt>
      <trkpt lat="44.15273" lon="5.01162">
        <ele>462</ele>
        <time>2016-05-18T12:19:47Z</time>
      </trkpt>
      <trkpt lat="44.15279" lon="5.01157">
        <ele>463</ele>
        <time>2016-05-18T12:19:55Z</time>
      </trkpt>
      <trkpt lat="44.15286" lon="5.01151">
        <ele>464</ele>
        <time>2016-05-18T12:20:10Z</time>
      </trkpt>
      <trkpt lat="44.15292" lon="5.01144">
        <ele>463</ele>
        <time>2016-05-18T12:20:18Z</time>
      </trkpt>
      <trkpt lat="44.153" lon="5.0114">
        <ele>462</ele>
        <time>2016-05-18T12:20:26Z</time>
      </trkpt>
      <trkpt lat="44.15308" lon="5.01139">
        <ele>462</ele>
        <time>2016-05-18T12:20:31Z</time>
      </trkpt>
      <trkpt lat="44.15315" lon="5.01135">
        <ele>464</ele>
        <time>2016-05-18T12:20:37Z</time>
      </trkpt>
      <trkpt lat="44.15324" lon="5.01136">
        <ele>463</ele>
        <time>2016-05-18T12:20:46Z</time>
      </trkpt>
      <trkpt lat="44.15333" lon="5.01136">
        <ele>460</ele>
        <time>2016-05-18T12:20:55Z</time>
      </trkpt>
      <trkpt lat="44.15341" lon="5.01137">
        <ele>460</ele>
        <time>2016-05-18T12:21:01Z</time>
      </trkpt>
      <trkpt lat="44.1535" lon="5.01137">
        <ele>458</ele>
        <time>2016-05-18T12:21:11Z</time>
      </trkpt>
      <trkpt lat="44.15358" lon="5.01136">
        <ele>454</ele>
        <time>2016-05-18T12:21:23Z</time>
      </trkpt>
      <trkpt lat="44.15367" lon="5.01136">
        <ele>453</ele>
        <time>2016-05-18T12:21:33Z</time>
      </trkpt>
      <trkpt lat="44.15375" lon="5.01136">
        <ele>455</ele>
        <time>2016-05-18T12:21:39Z</time>
      </trkpt>
      <trkpt lat="44.15384" lon="5.01134">
        <ele>455</ele>
        <time>2016-05-18T12:21:47Z</time>
      </trkpt>
      <trkpt lat="44.15392" lon="5.01132">
        <ele>452</ele>
        <time>2016-05-18T12:21:57Z</time>
      </trkpt>
      <trkpt lat="44.15399" lon="5.01129">
        <ele>451</ele>
        <time>2016-05-18T12:22:04Z</time>
      </trkpt>
      <trkpt lat="44.15407" lon="5.01125">
        <ele>451</ele>
        <time>2016-05-18T12:22:11Z</time>
      </trkpt>
      <trkpt lat="44.15415" lon="5.01121">
        <ele>447</ele>
        <time>2016-05-18T12:22:24Z</time>
      </trkpt>
      <trkpt lat="44.15423" lon="5.0112">
        <ele>443</ele>
        <time>2016-05-18T12:22:33Z</time>
      </trkpt>
      <trkpt lat="44.1543" lon="5.01115">
        <ele>446</ele>
        <time>2016-05-18T12:22:39Z</time>
      </trkpt>
      <trkpt lat="44.15438" lon="5.0111">
        <ele>440</ele>
        <time>2016-05-18T12:22:50Z</time>
      </trkpt>
      <trkpt lat="44.15444" lon="5.01102">
        <ele>438</ele>
        <time>2016-05-18T12:23:06Z</time>
      </trkpt>
      <trkpt lat="44.15448" lon="5.01093">
        <ele>437</ele>
        <time>2016-05-18T12:23:15Z</time>
      </trkpt>
      <trkpt lat="44.15453" lon="5.01085">
        <ele>437</ele>
        <time>2016-05-18T12:23:23Z</time>
      </trkpt>
      <trkpt lat="44.15458" lon="5.01076">
        <ele>442</ele>
        <time>2016-05-18T12:23:27Z</time>
      </trkpt>
      <trkpt lat="44.15465" lon="5.01067">
        <ele>441</ele>
        <time>2016-05-18T12:24:05Z</time>
      </trkpt>
      <trkpt lat="44.15474" lon="5.01068">
        <ele>444</ele>
        <time>2016-05-18T12:24:22Z</time>
      </trkpt>
      <trkpt lat="44.15482" lon="5.01066">
        <ele>445</ele>
        <time>2016-05-18T12:24:32Z</time>
      </trkpt>
      <trkpt lat="44.15491" lon="5.01062">
        <ele>446</ele>
        <time>2016-05-18T12:24:52Z</time>
      </trkpt>
      <trkpt lat="44.15498" lon="5.01056">
        <ele>445</ele>
        <time>2016-05-18T12:25:06Z</time>
      </trkpt>
      <trkpt lat="44.15506" lon="5.01053">
        <ele>448</ele>
        <time>2016-05-18T12:25:16Z</time>
      </trkpt>
      <trkpt lat="44.15513" lon="5.01047">
        <ele>449</ele>
        <time>2016-05-18T12:25:26Z</time>
      </trkpt>
      <trkpt lat="44.15521" lon="5.01042">
        <ele>450</ele>
        <time>2016-05-18T12:25:35Z</time>
      </trkpt>
      <trkpt lat="44.15528" lon="5.01039">
        <ele>451</ele>
        <time>2016-05-18T12:25:47Z</time>
      </trkpt>
      <trkpt lat="44.15534" lon="5.01031">
        <ele>455</ele>
        <time>2016-05-18T12:25:58Z</time>
      </trkpt>
      <trkpt lat="44.15542" lon="5.01034">
        <ele>451</ele>
        <time>2016-05-18T12:26:05Z</time>
      </trkpt>
      <trkpt lat="44.15551" lon="5.0103">
        <ele>455</ele>
        <time>2016-05-18T12:26:17Z</time>
      </trkpt>
      <trkpt lat="44.15558" lon="5.01029">
        <ele>456</ele>
        <time>2016-05-18T12:26:30Z</time>
      </trkpt>
      <trkpt lat="44.15567" lon="5.0103">
        <ele>452</ele>
        <time>2016-05-18T12:26:48Z</time>
      </trkpt>
      <trkpt lat="44.15575" lon="5.01029">
        <ele>455</ele>
        <time>2016-05-18T12:26:58Z</time>
      </trkpt>
      <trkpt lat="44.15582" lon="5.01022">
        <ele>454</ele>
        <time>2016-05-18T12:27:11Z</time>
      </trkpt>
      <trkpt lat="44.1559" lon="5.01018">
        <ele>456</ele>
        <time>2016-05-18T12:27:30Z</time>
      </trkpt>
      <trkpt lat="44.15597" lon="5.01012">
        <ele>456</ele>
        <time>2016-05-18T12:31:41Z</time>
      </trkpt>
      <trkpt lat="44.15605" lon="5.01009">
        <ele>454</ele>
        <time>2016-05-18T12:31:54Z</time>
      </trkpt>
      <trkpt lat="44.15613" lon="5.01008">
        <ele>456</ele>
        <time>2016-05-18T12:32:08Z</time>
      </trkpt>
      <trkpt lat="44.15622" lon="5.01006">
        <ele>454</ele>
        <time>2016-05-18T12:32:22Z</time>
      </trkpt>
      <trkpt lat="44.1563" lon="5.01006">
        <ele>450</ele>
        <time>2016-05-18T12:32:40Z</time>
      </trkpt>
      <trkpt lat="44.15637" lon="5.01006">
        <ele>451</ele>
        <time>2016-05-18T12:32:53Z</time>
      </trkpt>
      <trkpt lat="44.15647" lon="5.0101">
        <ele>451</ele>
        <time>2016-05-18T12:32:57Z</time>
      </trkpt>
      <trkpt lat="44.15655" lon="5.01015">
        <ele>439</ele>
        <time>2016-05-18T12:33:05Z</time>
      </trkpt>
      <trkpt lat="44.15662" lon="5.01021">
        <ele>447</ele>
        <time>2016-05-18T12:33:17Z</time>
      </trkpt>
      <trkpt lat="44.1567" lon="5.01026">
        <ele>449</ele>
        <time>2016-05-18T12:33:30Z</time>
      </trkpt>
      <trkpt lat="44.15678" lon="5.01026">
        <ele>451</ele>
        <time>2016-05-18T12:33:45Z</time>
      </trkpt>
      <trkpt lat="44.15686" lon="5.0102">
        <ele>448</ele>
        <time>2016-05-18T12:33:57Z</time>
      </trkpt>
      <trkpt lat="44.15693" lon="5.01012">
        <ele>446</ele>
        <time>2016-05-18T12:34:16Z</time>
      </trkpt>
      <trkpt lat="44.15697" lon="5.01002">
        <ele>439</ele>
        <time>2016-05-18T12:34:23Z</time>
      </trkpt>
      <trkpt lat="44.157" lon="5.00993">
        <ele>444</ele>
        <time>2016-05-18T12:34:28Z</time>
      </trkpt>
      <trkpt lat="44.15702" lon="5.0098">
        <ele>442</ele>
        <time>2016-05-18T12:34:46Z</time>
      </trkpt>
      <trkpt lat="44.15708" lon="5.00971">
        <ele>441</ele>
        <time>2016-05-18T12:34:56Z</time>
      </trkpt>
      <trkpt lat="44.15714" lon="5.00964">
        <ele>441</ele>
        <time>2016-05-18T12:35:02Z</time>
      </trkpt>
      <trkpt lat="44.1572" lon="5.00957">
        <ele>439</ele>
        <time>2016-05-18T12:35:17Z</time>
      </trkpt>
      <trkpt lat="44.15726" lon="5.00952">
        <ele>438</ele>
        <time>2016-05-18T12:35:23Z</time>
      </trkpt>
      <trkpt lat="44.15734" lon="5.00948">
        <ele>440</ele>
        <time>2016-05-18T12:35:28Z</time>
      </trkpt>
      <trkpt lat="44.15741" lon="5.00942">
        <ele>435</ele>
        <time>2016-05-18T12:35:49Z</time>
      </trkpt>
      <trkpt lat="44.15748" lon="5.00937">
        <ele>432</ele>
        <time>2016-05-18T12:36:02Z</time>
      </trkpt>
      <trkpt lat="44.15755" lon="5.0093">
        <ele>434</ele>
        <time>2016-05-18T12:36:08Z</time>
      </trkpt>
      <trkpt lat="44.15761" lon="5.00921">
        <ele>425</ele>
        <time>2016-05-18T12:36:19Z</time>
      </trkpt>
      <trkpt lat="44.15766" lon="5.00911">
        <ele>423</ele>
        <time>2016-05-18T12:36:26Z</time>
      </trkpt>
      <trkpt lat="44.15771" lon="5.00902">
        <ele>416</ele>
        <time>2016-05-18T12:36:41Z</time>
      </trkpt>
      <trkpt lat="44.15779" lon="5.00897">
        <ele>416</ele>
        <time>2016-05-18T12:36:51Z</time>
      </trkpt>
      <trkpt lat="44.15784" lon="5.00888">
        <ele>417</ele>
        <time>2016-05-18T12:37:00Z</time>
      </trkpt>
      <trkpt lat="44.15791" lon="5.00882">
        <ele>415</ele>
        <time>2016-05-18T12:37:06Z</time>
      </trkpt>
      <trkpt lat="44.15801" lon="5.00879">
        <ele>419</ele>
        <time>2016-05-18T12:37:11Z</time>
      </trkpt>
      <trkpt lat="44.15809" lon="5.00877">
        <ele>418</ele>
        <time>2016-05-18T12:37:18Z</time>
      </trkpt>
      <trkpt lat="44.15817" lon="5.00882">
        <ele>418</ele>
        <time>2016-05-18T12:37:24Z</time>
      </trkpt>
      <trkpt lat="44.15811" lon="5.00884">
        <ele>410</ele>
        <time>2016-05-18T12:37:42Z</time>
      </trkpt>
      <trkpt lat="44.15789" lon="5.00889">
        <ele>409</ele>
        <time>2016-05-18T12:37:46Z</time>
      </trkpt>
      <trkpt lat="44.15838" lon="5.00874">
        <ele>416</ele>
        <time>2016-05-18T12:37:51Z</time>
      </trkpt>
      <trkpt lat="44.15846" lon="5.00878">
        <ele>419</ele>
        <time>2016-05-18T12:38:07Z</time>
      </trkpt>
      <trkpt lat="44.15854" lon="5.00881">
        <ele>418</ele>
        <time>2016-05-18T12:38:18Z</time>
      </trkpt>
      <trkpt lat="44.15862" lon="5.00883">
        <ele>418</ele>
        <time>2016-05-18T12:38:28Z</time>
      </trkpt>
      <trkpt lat="44.15871" lon="5.00883">
        <ele>415</ele>
        <time>2016-05-18T12:38:37Z</time>
      </trkpt>
      <trkpt lat="44.15878" lon="5.0088">
        <ele>406</ele>
        <time>2016-05-18T12:38:47Z</time>
      </trkpt>
      <trkpt lat="44.15883" lon="5.00873">
        <ele>404</ele>
        <time>2016-05-18T12:39:00Z</time>
      </trkpt>
      <trkpt lat="44.15891" lon="5.00872">
        <ele>405</ele>
        <time>2016-05-18T12:39:08Z</time>
      </trkpt>
      <trkpt lat="44.15898" lon="5.00872">
        <ele>408</ele>
        <time>2016-05-18T12:39:15Z</time>
      </trkpt>
      <trkpt lat="44.15905" lon="5.00873">
        <ele>412</ele>
        <time>2016-05-18T12:39:21Z</time>
      </trkpt>
      <trkpt lat="44.15913" lon="5.00878">
        <ele>411</ele>
        <time>2016-05-18T12:39:33Z</time>
      </trkpt>
      <trkpt lat="44.15915" lon="5.00889">
        <ele>414</ele>
        <time>2016-05-18T12:39:39Z</time>
      </trkpt>
      <trkpt lat="44.15923" lon="5.00894">
        <ele>412</ele>
        <time>2016-05-18T12:39:49Z</time>
      </trkpt>
      <trkpt lat="44.15929" lon="5.00904">
        <ele>411</ele>
        <time>2016-05-18T12:39:57Z</time>
      </trkpt>
      <trkpt lat="44.15932" lon="5.00912">
        <ele>415</ele>
        <time>2016-05-18T12:40:03Z</time>
      </trkpt>
      <trkpt lat="44.15935" lon="5.00924">
        <ele>417</ele>
        <time>2016-05-18T12:40:10Z</time>
      </trkpt>
      <trkpt lat="44.1594" lon="5.00932">
        <ele>412</ele>
        <time>2016-05-18T12:40:29Z</time>
      </trkpt>
      <trkpt lat="44.15948" lon="5.00932">
        <ele>411</ele>
        <time>2016-05-18T12:40:48Z</time>
      </trkpt>
      <trkpt lat="44.15946" lon="5.00921">
        <ele>408</ele>
        <time>2016-05-18T12:41:25Z</time>
      </trkpt>
      <trkpt lat="44.15938" lon="5.00915">
        <ele>401</ele>
        <time>2016-05-18T12:41:46Z</time>
      </trkpt>
      <trkpt lat="44.15932" lon="5.00907">
        <ele>399</ele>
        <time>2016-05-18T12:41:51Z</time>
      </trkpt>
      <trkpt lat="44.15932" lon="5.00899">
        <ele>399</ele>
        <time>2016-05-18T12:42:03Z</time>
      </trkpt>
      <trkpt lat="44.15932" lon="5.00888">
        <ele>401</ele>
        <time>2016-05-18T12:42:10Z</time>
      </trkpt>
      <trkpt lat="44.15933" lon="5.00877">
        <ele>400</ele>
        <time>2016-05-18T12:42:21Z</time>
      </trkpt>
      <trkpt lat="44.15928" lon="5.00869">
        <ele>396</ele>
        <time>2016-05-18T12:42:31Z</time>
      </trkpt>
      <trkpt lat="44.15925" lon="5.00857">
        <ele>393</ele>
        <time>2016-05-18T12:42:41Z</time>
      </trkpt>
      <trkpt lat="44.15922" lon="5.00847">
        <ele>393</ele>
        <time>2016-05-18T12:42:47Z</time>
      </trkpt>
      <trkpt lat="44.15922" lon="5.00835">
        <ele>394</ele>
        <time>2016-05-18T12:42:57Z</time>
      </trkpt>
      <trkpt lat="44.15922" lon="5.00823">
        <ele>396</ele>
        <time>2016-05-18T12:43:07Z</time>
      </trkpt>
      <trkpt lat="44.15924" lon="5.00811">
        <ele>394</ele>
        <time>2016-05-18T12:43:18Z</time>
      </trkpt>
      <trkpt lat="44.15926" lon="5.008">
        <ele>391</ele>
        <time>2016-05-18T12:43:31Z</time>
      </trkpt>
      <trkpt lat="44.15929" lon="5.00789">
        <ele>389</ele>
        <time>2016-05-18T12:43:44Z</time>
      </trkpt>
      <trkpt lat="44.15933" lon="5.00778">
        <ele>392</ele>
        <time>2016-05-18T12:44:06Z</time>
      </trkpt>
      <trkpt lat="44.15935" lon="5.00767">
        <ele>393</ele>
        <time>2016-05-18T12:46:00Z</time>
      </trkpt>
      <trkpt lat="44.15935" lon="5.00755">
        <ele>393</ele>
        <time>2016-05-18T12:46:12Z</time>
      </trkpt>
      <trkpt lat="44.15935" lon="5.00742">
        <ele>390</ele>
        <time>2016-05-18T12:46:25Z</time>
      </trkpt>
      <trkpt lat="44.15936" lon="5.0073">
        <ele>388</ele>
        <time>2016-05-18T12:46:43Z</time>
      </trkpt>
      <trkpt lat="44.15934" lon="5.00718">
        <ele>386</ele>
        <time>2016-05-18T12:46:54Z</time>
      </trkpt>
      <trkpt lat="44.15933" lon="5.00708">
        <ele>382</ele>
        <time>2016-05-18T12:47:05Z</time>
      </trkpt>
      <trkpt lat="44.15938" lon="5.00697">
        <ele>383</ele>
        <time>2016-05-18T12:47:09Z</time>
      </trkpt>
      <trkpt lat="44.15938" lon="5.00686">
        <ele>383</ele>
        <time>2016-05-18T12:47:25Z</time>
      </trkpt>
      <trkpt lat="44.15941" lon="5.00675">
        <ele>380</ele>
        <time>2016-05-18T12:47:40Z</time>
      </trkpt>
      <trkpt lat="44.15944" lon="5.00666">
        <ele>380</ele>
        <time>2016-05-18T12:47:47Z</time>
      </trkpt>
      <trkpt lat="44.15947" lon="5.00654">
        <ele>378</ele>
        <time>2016-05-18T12:47:58Z</time>
      </trkpt>
      <trkpt lat="44.15946" lon="5.00645">
        <ele>378</ele>
        <time>2016-05-18T12:48:07Z</time>
      </trkpt>
      <trkpt lat="44.15949" lon="5.00637">
        <ele>380</ele>
        <time>2016-05-18T12:48:14Z</time>
      </trkpt>
      <trkpt lat="44.15946" lon="5.00625">
        <ele>378</ele>
        <time>2016-05-18T12:48:28Z</time>
      </trkpt>
      <trkpt lat="44.15946" lon="5.00613">
        <ele>377</ele>
        <time>2016-05-18T12:48:38Z</time>
      </trkpt>
      <trkpt lat="44.15943" lon="5.00605">
        <ele>372</ele>
        <time>2016-05-18T12:48:48Z</time>
      </trkpt>
      <trkpt lat="44.15943" lon="5.00595">
        <ele>370</ele>
        <time>2016-05-18T12:48:57Z</time>
      </trkpt>
      <trkpt lat="44.15946" lon="5.00584">
        <ele>367</ele>
        <time>2016-05-18T12:49:11Z</time>
      </trkpt>
      <trkpt lat="44.15948" lon="5.00573">
        <ele>368</ele>
        <time>2016-05-18T12:49:22Z</time>
      </trkpt>
      <trkpt lat="44.15952" lon="5.00562">
        <ele>370</ele>
        <time>2016-05-18T12:49:35Z</time>
      </trkpt>
      <trkpt lat="44.1595" lon="5.00553">
        <ele>369</ele>
        <time>2016-05-18T12:49:41Z</time>
      </trkpt>
      <trkpt lat="44.15947" lon="5.00542">
        <ele>368</ele>
        <time>2016-05-18T12:49:49Z</time>
      </trkpt>
      <trkpt lat="44.15944" lon="5.00531">
        <ele>361</ele>
        <time>2016-05-18T12:50:04Z</time>
      </trkpt>
      <trkpt lat="44.15943" lon="5.0052">
        <ele>360</ele>
        <time>2016-05-18T12:50:23Z</time>
      </trkpt>
      <trkpt lat="44.15945" lon="5.0051">
        <ele>362</ele>
        <time>2016-05-18T12:50:38Z</time>
      </trkpt>
      <trkpt lat="44.15946" lon="5.00498">
        <ele>359</ele>
        <time>2016-05-18T12:50:50Z</time>
      </trkpt>
      <trkpt lat="44.15943" lon="5.00488">
        <ele>357</ele>
        <time>2016-05-18T12:51:09Z</time>
      </trkpt>
      <trkpt lat="44.1594" lon="5.00478">
        <ele>353</ele>
        <time>2016-05-18T12:51:15Z</time>
      </trkpt>
      <trkpt lat="44.15938" lon="5.00466">
        <ele>353</ele>
        <time>2016-05-18T12:51:27Z</time>
      </trkpt>
      <trkpt lat="44.15941" lon="5.00455">
        <ele>351</ele>
        <time>2016-05-18T12:51:36Z</time>
      </trkpt>
      <trkpt lat="44.15944" lon="5.00444">
        <ele>349</ele>
        <time>2016-05-18T12:51:45Z</time>
      </trkpt>
      <trkpt lat="44.15948" lon="5.00433">
        <ele>344</ele>
        <time>2016-05-18T12:52:02Z</time>
      </trkpt>
      <trkpt lat="44.15955" lon="5.00428">
        <ele>344</ele>
        <time>2016-05-18T12:52:07Z</time>
      </trkpt>
      <trkpt lat="44.15961" lon="5.00419">
        <ele>342</ele>
        <time>2016-05-18T12:52:20Z</time>
      </trkpt>
      <trkpt lat="44.15969" lon="5.00414">
        <ele>341</ele>
        <time>2016-05-18T12:52:30Z</time>
      </trkpt>
      <trkpt lat="44.15973" lon="5.00402">
        <ele>341</ele>
        <time>2016-05-18T12:52:44Z</time>
      </trkpt>
      <trkpt lat="44.15974" lon="5.0039">
        <ele>340</ele>
        <time>2016-05-18T12:52:56Z</time>
      </trkpt>
      <trkpt lat="44.15978" lon="5.00381">
        <ele>340</ele>
        <time>2016-05-18T12:53:05Z</time>
      </trkpt>
      <trkpt lat="44.15983" lon="5.0037">
        <ele>340</ele>
        <time>2016-05-18T12:53:14Z</time>
      </trkpt>
      <trkpt lat="44.15989" lon="5.00363">
        <ele>341</ele>
        <time>2016-05-18T12:53:23Z</time>
      </trkpt>
      <trkpt lat="44.15995" lon="5.00355">
        <ele>336</ele>
        <time>2016-05-18T12:53:48Z</time>
      </trkpt>
      <trkpt lat="44.16002" lon="5.00353">
        <ele>337</ele>
        <time>2016-05-18T12:53:55Z</time>
      </trkpt>
      <trkpt lat="44.16009" lon="5.00346">
        <ele>332</ele>
        <time>2016-05-18T12:54:09Z</time>
      </trkpt>
      <trkpt lat="44.16016" lon="5.0034">
        <ele>330</ele>
        <time>2016-05-18T12:54:20Z</time>
      </trkpt>
      <trkpt lat="44.16022" lon="5.00332">
        <ele>330</ele>
        <time>2016-05-18T12:54:30Z</time>
      </trkpt>
      <trkpt lat="44.16026" lon="5.00324">
        <ele>331</ele>
        <time>2016-05-18T12:54:40Z</time>
      </trkpt>
      <trkpt lat="44.16031" lon="5.00316">
        <ele>330</ele>
        <time>2016-05-18T12:54:52Z</time>
      </trkpt>
      <trkpt lat="44.16038" lon="5.00313">
        <ele>332</ele>
        <time>2016-05-18T12:55:04Z</time>
      </trkpt>
      <trkpt lat="44.16046" lon="5.00317">
        <ele>335</ele>
        <time>2016-05-18T12:55:23Z</time>
      </trkpt>
      <trkpt lat="44.16054" lon="5.00321">
        <ele>332</ele>
        <time>2016-05-18T12:55:39Z</time>
      </trkpt>
      <trkpt lat="44.1606" lon="5.00328">
        <ele>325</ele>
        <time>2016-05-18T12:55:59Z</time>
      </trkpt>
      <trkpt lat="44.16065" lon="5.00336">
        <ele>326</ele>
        <time>2016-05-18T12:56:08Z</time>
      </trkpt>
      <trkpt lat="44.1607" lon="5.00344">
        <ele>326</ele>
        <time>2016-05-18T12:56:16Z</time>
      </trkpt>
      <trkpt lat="44.16073" lon="5.00353">
        <ele>324</ele>
        <time>2016-05-18T12:56:24Z</time>
      </trkpt>
      <trkpt lat="44.16079" lon="5.0036">
        <ele>319</ele>
        <time>2016-05-18T12:56:49Z</time>
      </trkpt>
      <trkpt lat="44.16084" lon="5.0037">
        <ele>322</ele>
        <time>2016-05-18T12:57:04Z</time>
      </trkpt>
      <trkpt lat="44.16089" lon="5.00379">
        <ele>321</ele>
        <time>2016-05-18T12:57:18Z</time>
      </trkpt>
      <trkpt lat="44.16094" lon="5.00387">
        <ele>320</ele>
        <time>2016-05-18T12:57:30Z</time>
      </trkpt>
      <trkpt lat="44.161" lon="5.00395">
        <ele>322</ele>
        <time>2016-05-18T12:57:37Z</time>
      </trkpt>
      <trkpt lat="44.16106" lon="5.00398">
        <ele>321</ele>
        <time>2016-05-18T12:57:44Z</time>
      </trkpt>
      <trkpt lat="44.16114" lon="5.00404">
        <ele>318</ele>
        <time>2016-05-18T12:57:56Z</time>
      </trkpt>
      <trkpt lat="44.16121" lon="5.00409">
        <ele>316</ele>
        <time>2016-05-18T12:58:09Z</time>
      </trkpt>
      <trkpt lat="44.16127" lon="5.00418">
        <ele>317</ele>
        <time>2016-05-18T12:58:15Z</time>
      </trkpt>
      <trkpt lat="44.16133" lon="5.00422">
        <ele>319</ele>
        <time>2016-05-18T12:58:23Z</time>
      </trkpt>
      <trkpt lat="44.16141" lon="5.00426">
        <ele>314</ele>
        <time>2016-05-18T12:58:47Z</time>
      </trkpt>
      <trkpt lat="44.1615" lon="5.00429">
        <ele>312</ele>
        <time>2016-05-18T12:58:57Z</time>
      </trkpt>
      <trkpt lat="44.16157" lon="5.00435">
        <ele>310</ele>
        <time>2016-05-18T12:59:16Z</time>
      </trkpt>
      <trkpt lat="44.16165" lon="5.00439">
        <ele>308</ele>
        <time>2016-05-18T12:59:27Z</time>
      </trkpt>
      <trkpt lat="44.16172" lon="5.00439">
        <ele>299</ele>
        <time>2016-05-18T12:59:54Z</time>
      </trkpt>
      <trkpt lat="44.16177" lon="5.00445">
        <ele>300</ele>
        <time>2016-05-18T12:59:59Z</time>
      </trkpt>
      <trkpt lat="44.16184" lon="5.00452">
        <ele>299</ele>
        <time>2016-05-18T13:00:25Z</time>
      </trkpt>
      <trkpt lat="44.16189" lon="5.00463">
        <ele>298</ele>
        <time>2016-05-18T13:00:54Z</time>
      </trkpt>
      <trkpt lat="44.16194" lon="5.0047">
        <ele>300</ele>
        <time>2016-05-18T13:01:06Z</time>
      </trkpt>
      <trkpt lat="44.16201" lon="5.00475">
        <ele>295</ele>
        <time>2016-05-18T13:01:14Z</time>
      </trkpt>
      <trkpt lat="44.1621" lon="5.00475">
        <ele>297</ele>
        <time>2016-05-18T13:01:30Z</time>
      </trkpt>
      <trkpt lat="44.16218" lon="5.00476">
        <ele>293</ele>
        <time>2016-05-18T13:02:04Z</time>
      </trkpt>
      <trkpt lat="44.16225" lon="5.00474">
        <ele>293</ele>
        <time>2016-05-18T13:02:09Z</time>
      </trkpt>
      <trkpt lat="44.16233" lon="5.00474">
        <ele>290</ele>
        <time>2016-05-18T13:02:19Z</time>
      </trkpt>
      <trkpt lat="44.16241" lon="5.0047">
        <ele>288</ele>
        <time>2016-05-18T13:02:28Z</time>
      </trkpt>
      <trkpt lat="44.16248" lon="5.00465">
        <ele>285</ele>
        <time>2016-05-18T13:02:39Z</time>
      </trkpt>
      <trkpt lat="44.16257" lon="5.0046">
        <ele>289</ele>
        <time>2016-05-18T13:02:51Z</time>
      </trkpt>
      <trkpt lat="44.16263" lon="5.00461">
        <ele>289</ele>
        <time>2016-05-18T13:02:55Z</time>
      </trkpt>
      <trkpt lat="44.16271" lon="5.00454">
        <ele>290</ele>
        <time>2016-05-18T13:03:09Z</time>
      </trkpt>
      <trkpt lat="44.16275" lon="5.00445">
        <ele>288</ele>
        <time>2016-05-18T13:03:20Z</time>
      </trkpt>
      <trkpt lat="44.16281" lon="5.00438">
        <ele>291</ele>
        <time>2016-05-18T13:03:35Z</time>
      </trkpt>
      <trkpt lat="44.1629" lon="5.0044">
        <ele>286</ele>
        <time>2016-05-18T13:03:48Z</time>
      </trkpt>
      <trkpt lat="44.16292" lon="5.00429">
        <ele>285</ele>
        <time>2016-05-18T13:04:05Z</time>
      </trkpt>
      <trkpt lat="44.163" lon="5.00425">
        <ele>284</ele>
        <time>2016-05-18T13:04:18Z</time>
      </trkpt>
      <trkpt lat="44.16307" lon="5.00422">
        <ele>284</ele>
        <time>2016-05-18T13:04:26Z</time>
      </trkpt>
      <trkpt lat="44.16314" lon="5.00417">
        <ele>285</ele>
        <time>2016-05-18T13:04:34Z</time>
      </trkpt>
      <trkpt lat="44.16322" lon="5.00419">
        <ele>283</ele>
        <time>2016-05-18T13:04:45Z</time>
      </trkpt>
      <trkpt lat="44.16331" lon="5.0042">
        <ele>282</ele>
        <time>2016-05-18T13:04:55Z</time>
      </trkpt>
      <trkpt lat="44.16339" lon="5.00423">
        <ele>284</ele>
        <time>2016-05-18T13:05:06Z</time>
      </trkpt>
      <trkpt lat="44.16347" lon="5.00423">
        <ele>284</ele>
        <time>2016-05-18T13:05:14Z</time>
      </trkpt>
      <trkpt lat="44.16356" lon="5.00426">
        <ele>285</ele>
        <time>2016-05-18T13:05:27Z</time>
      </trkpt>
      <trkpt lat="44.16364" lon="5.0043">
        <ele>287</ele>
        <time>2016-05-18T13:05:38Z</time>
      </trkpt>
      <trkpt lat="44.1637" lon="5.00437">
        <ele>286</ele>
        <time>2016-05-18T13:05:47Z</time>
      </trkpt>
      <trkpt lat="44.16376" lon="5.00444">
        <ele>289</ele>
        <time>2016-05-18T13:05:58Z</time>
      </trkpt>
      <trkpt lat="44.16369" lon="5.00437">
        <ele>287</ele>
        <time>2016-05-18T13:07:49Z</time>
      </trkpt>
      <trkpt lat="44.16371" lon="5.00429">
        <ele>284</ele>
        <time>2016-05-18T13:08:55Z</time>
      </trkpt>
      <trkpt lat="44.16371" lon="5.00429">
        <ele>284</ele>
        <time>2016-05-18T13:08:55Z</time>
      </trkpt>
    </trkseg>
  </trk>
</gpx>